CPA880 VHHH-KLAX
Flight info
| Callsign | CPA880 |
|---|---|
| Flight time | N/A |
| Altitude | 33000 |
| Route | DALOL V631 ENVAR M750 MUKEP Y891 OVSUN/N0495F340 Y893 IGMIS/N0491F330 Y57 POROT OTR11 AVBET OTR9 EMRON/N0485F350 DCT 41N160E 43N170E 44N180E 46N170W 47N160W/N0471F370 45N150W 43N145W 41N140W DCT HEKAB DCT ALCOA DCT PIRAT DCT BURGL IRNMN2 |
| Aircraft | B77W/H-SDE1E2E3FGHIJ2J3J4J5M1RWXY/LB1D1 |
Departure
| Time | N/A |
|---|---|
| Airport | Hong Kong International Airport (VHHH) |
Arrival
| Time | 2026-04-20 04:54 |
|---|---|
| Airport | Los Angeles International Airport (KLAX) |
| Time | Latitude | Longitude | Altitude | Speed | Heading |
|---|---|---|---|---|---|
| 2026-04-19 16:33 | 21.75156 | 114.84289 | 22108 ft | 469 kts | 108° |
| 2026-04-19 16:34 | 21.74444 | 114.87691 | 22517 ft | 474 kts | 99° |
| 2026-04-19 16:34 | 21.74226 | 114.91230 | 22927 ft | 478 kts | 90° |
| 2026-04-19 16:34 | 21.74263 | 114.94816 | 23325 ft | 482 kts | 90° |
| 2026-04-19 16:34 | 21.74311 | 114.98441 | 23676 ft | 486 kts | 90° |
| 2026-04-19 16:35 | 21.74342 | 115.02085 | 24010 ft | 489 kts | 90° |
| 2026-04-19 16:35 | 21.74352 | 115.05748 | 24375 ft | 491 kts | 90° |
| 2026-04-19 16:35 | 21.74346 | 115.09433 | 24726 ft | 493 kts | 91° |
| 2026-04-19 16:35 | 21.74332 | 115.13124 | 25052 ft | 496 kts | 91° |
| 2026-04-19 16:36 | 21.74317 | 115.16821 | 25373 ft | 499 kts | 90° |
| 2026-04-19 16:36 | 21.74303 | 115.20565 | 25702 ft | 502 kts | 90° |
| 2026-04-19 16:36 | 21.74291 | 115.24339 | 26022 ft | 505 kts | 90° |
| 2026-04-19 16:36 | 21.74283 | 115.28133 | 26351 ft | 507 kts | 90° |
| 2026-04-19 16:37 | 21.74276 | 115.31938 | 26673 ft | 510 kts | 90° |
| 2026-04-19 16:37 | 21.74269 | 115.35723 | 26978 ft | 513 kts | 90° |
| 2026-04-19 16:37 | 21.74260 | 115.39574 | 27262 ft | 517 kts | 90° |
| 2026-04-19 16:37 | 21.74250 | 115.43457 | 27569 ft | 519 kts | 90° |
| 2026-04-19 16:38 | 21.74238 | 115.47360 | 27865 ft | 522 kts | 90° |
| 2026-04-19 16:38 | 21.74225 | 115.51271 | 28157 ft | 524 kts | 90° |
| 2026-04-19 16:38 | 21.74211 | 115.55203 | 28426 ft | 527 kts | 90° |
| 2026-04-19 16:38 | 21.74197 | 115.59152 | 28698 ft | 529 kts | 90° |
| 2026-04-19 16:39 | 21.74182 | 115.63130 | 28959 ft | 532 kts | 90° |
| 2026-04-19 16:39 | 21.74168 | 115.67118 | 29181 ft | 535 kts | 90° |
| 2026-04-19 16:39 | 21.74154 | 115.71125 | 29442 ft | 536 kts | 90° |
| 2026-04-19 16:39 | 21.74139 | 115.75135 | 29810 ft | 536 kts | 90° |
| 2026-04-19 16:40 | 21.74123 | 115.79085 | 30186 ft | 535 kts | 90° |
| 2026-04-19 16:40 | 21.74105 | 115.83081 | 30521 ft | 534 kts | 90° |
| 2026-04-19 16:40 | 21.74087 | 115.87081 | 30844 ft | 533 kts | 90° |
| 2026-04-19 16:41 | 21.74046 | 115.95119 | 30967 ft | 538 kts | 90° |
| 2026-04-19 16:41 | 21.74002 | 116.03132 | 30961 ft | 532 kts | 90° |
| 2026-04-19 16:42 | 21.73955 | 116.11039 | 30973 ft | 531 kts | 90° |
| 2026-04-19 16:42 | 21.73904 | 116.18984 | 30969 ft | 531 kts | 90° |
| 2026-04-19 16:43 | 21.73849 | 116.26945 | 30969 ft | 532 kts | 90° |
| 2026-04-19 16:43 | 21.73790 | 116.34914 | 30972 ft | 532 kts | 90° |
| 2026-04-19 16:44 | 21.73727 | 116.42892 | 30970 ft | 533 kts | 90° |
| 2026-04-19 16:44 | 21.73661 | 116.50809 | 30970 ft | 533 kts | 90° |
| 2026-04-19 16:45 | 21.73590 | 116.58784 | 30968 ft | 533 kts | 90° |
| 2026-04-19 16:45 | 21.73517 | 116.66754 | 30966 ft | 533 kts | 90° |
| 2026-04-19 16:46 | 21.73576 | 116.74705 | 30960 ft | 532 kts | 84° |
| 2026-04-19 16:46 | 21.74904 | 116.82503 | 30978 ft | 530 kts | 72° |
| 2026-04-19 16:47 | 21.77428 | 116.89927 | 30976 ft | 528 kts | 66° |
| 2026-04-19 16:47 | 21.80174 | 116.97256 | 30970 ft | 529 kts | 66° |
| 2026-04-19 16:48 | 21.82885 | 117.04641 | 30968 ft | 530 kts | 66° |
| 2026-04-19 16:48 | 21.85559 | 117.12041 | 30967 ft | 531 kts | 66° |
| 2026-04-19 16:49 | 21.87776 | 117.18199 | 30960 ft | 531 kts | 66° |
| 2026-04-19 16:49 | 21.90877 | 117.26815 | 30965 ft | 531 kts | 66° |
| 2026-04-19 16:50 | 21.93112 | 117.33027 | 30967 ft | 530 kts | 66° |
| 2026-04-19 16:50 | 21.95760 | 117.40399 | 30971 ft | 531 kts | 66° |
| 2026-04-19 16:51 | 21.98431 | 117.47814 | 30963 ft | 530 kts | 65° |
| 2026-04-19 16:51 | 22.01799 | 117.54837 | 30967 ft | 525 kts | 55° |
| 2026-04-19 16:52 | 22.05678 | 117.61524 | 30968 ft | 525 kts | 55° |
| 2026-04-19 16:52 | 22.09530 | 117.68229 | 30968 ft | 526 kts | 56° |
| 2026-04-19 16:53 | 22.13344 | 117.74969 | 30970 ft | 526 kts | 56° |
| 2026-04-19 16:53 | 22.17133 | 117.81697 | 30981 ft | 527 kts | 56° |
| 2026-04-19 16:53 | 22.19044 | 117.85090 | 31097 ft | 531 kts | 56° |
| 2026-04-19 16:54 | 22.20962 | 117.88496 | 31382 ft | 531 kts | 56° |
| 2026-04-19 16:54 | 22.22881 | 117.91906 | 31674 ft | 530 kts | 55° |
| 2026-04-19 16:54 | 22.24794 | 117.95307 | 31965 ft | 530 kts | 55° |
| 2026-04-19 16:54 | 22.26712 | 117.98717 | 32230 ft | 530 kts | 55° |
| 2026-04-19 16:55 | 22.28609 | 118.02071 | 32457 ft | 531 kts | 54° |
| 2026-04-19 16:55 | 22.32570 | 118.08832 | 32891 ft | 533 kts | 53° |
| 2026-04-19 16:55 | 22.34560 | 118.12202 | 32939 ft | 530 kts | 52° |
| 2026-04-19 16:56 | 22.38483 | 118.18894 | 32976 ft | 524 kts | 52° |
| 2026-04-19 16:56 | 22.42347 | 118.25575 | 32972 ft | 525 kts | 53° |
| 2026-04-19 16:57 | 22.46145 | 118.32311 | 32975 ft | 525 kts | 53° |
| 2026-04-19 16:57 | 22.49923 | 118.39018 | 32971 ft | 525 kts | 53° |
| 2026-04-19 16:58 | 22.53740 | 118.45774 | 32978 ft | 526 kts | 53° |
| 2026-04-19 16:58 | 22.57558 | 118.52536 | 32977 ft | 527 kts | 53° |
| 2026-04-19 16:59 | 22.61390 | 118.59260 | 32973 ft | 527 kts | 53° |
| 2026-04-19 16:59 | 22.65254 | 118.66018 | 32974 ft | 528 kts | 53° |
| 2026-04-19 17:00 | 22.69113 | 118.72787 | 32973 ft | 528 kts | 53° |
| 2026-04-19 17:00 | 22.72970 | 118.79572 | 32975 ft | 528 kts | 53° |
| 2026-04-19 17:01 | 22.76825 | 118.86363 | 32975 ft | 528 kts | 53° |
| 2026-04-19 17:01 | 22.80667 | 118.93139 | 32995 ft | 528 kts | 53° |
| 2026-04-19 17:02 | 22.84508 | 118.99923 | 32976 ft | 528 kts | 53° |
| 2026-04-19 17:02 | 22.88344 | 119.06705 | 32975 ft | 527 kts | 53° |
| 2026-04-19 17:03 | 22.92149 | 119.13444 | 32970 ft | 527 kts | 53° |
| 2026-04-19 17:03 | 22.95983 | 119.20241 | 32970 ft | 526 kts | 53° |
| 2026-04-19 17:04 | 22.99798 | 119.27012 | 32970 ft | 526 kts | 53° |
| 2026-04-19 17:04 | 23.03619 | 119.33806 | 32965 ft | 526 kts | 54° |
| 2026-04-19 17:05 | 23.07428 | 119.40586 | 32968 ft | 526 kts | 54° |
| 2026-04-19 17:05 | 23.11232 | 119.47367 | 32968 ft | 525 kts | 54° |
| 2026-04-19 17:06 | 23.15016 | 119.54122 | 32957 ft | 525 kts | 54° |
| 2026-04-19 17:06 | 23.18814 | 119.60909 | 32977 ft | 526 kts | 54° |
| 2026-04-19 17:07 | 23.22614 | 119.67715 | 32982 ft | 526 kts | 54° |
| 2026-04-19 17:07 | 23.26410 | 119.74527 | 32971 ft | 526 kts | 54° |
| 2026-04-19 17:08 | 23.30197 | 119.81333 | 32968 ft | 525 kts | 54° |
| 2026-04-19 17:08 | 23.33981 | 119.88134 | 32962 ft | 525 kts | 54° |
| 2026-04-19 17:09 | 23.38305 | 119.94455 | 32962 ft | 517 kts | 43° |
| 2026-04-19 17:09 | 23.43397 | 119.99835 | 32986 ft | 512 kts | 38° |
| 2026-04-19 17:10 | 23.48631 | 120.05127 | 32971 ft | 513 kts | 38° |
| 2026-04-19 17:10 | 23.53835 | 120.10459 | 32974 ft | 514 kts | 38° |
| 2026-04-19 17:11 | 23.59022 | 120.15819 | 32971 ft | 514 kts | 38° |
| 2026-04-19 17:11 | 23.64182 | 120.21164 | 32974 ft | 515 kts | 38° |
| 2026-04-19 17:12 | 23.69378 | 120.26548 | 32976 ft | 515 kts | 39° |
| 2026-04-19 17:12 | 23.74570 | 120.31931 | 32976 ft | 515 kts | 39° |
| 2026-04-19 17:13 | 23.79761 | 120.37320 | 32975 ft | 514 kts | 39° |
| 2026-04-19 17:13 | 23.84937 | 120.42700 | 32974 ft | 514 kts | 39° |
| 2026-04-19 17:14 | 23.90107 | 120.48080 | 32986 ft | 513 kts | 39° |
| 2026-04-19 17:14 | 23.95226 | 120.53443 | 32981 ft | 512 kts | 40° |
| 2026-04-19 17:15 | 24.00344 | 120.58851 | 32985 ft | 511 kts | 40° |
| 2026-04-19 17:15 | 24.05459 | 120.64259 | 32991 ft | 510 kts | 40° |
| 2026-04-19 17:16 | 24.10568 | 120.69662 | 33013 ft | 510 kts | 40° |
| 2026-04-19 17:16 | 24.15667 | 120.75057 | 33011 ft | 510 kts | 40° |
| 2026-04-19 17:17 | 24.20761 | 120.80455 | 33003 ft | 509 kts | 40° |
| 2026-04-19 17:17 | 24.25819 | 120.85819 | 33001 ft | 509 kts | 40° |
| 2026-04-19 17:18 | 24.30914 | 120.91233 | 33004 ft | 509 kts | 40° |
| 2026-04-19 17:18 | 24.36003 | 120.96645 | 33028 ft | 509 kts | 40° |
| 2026-04-19 17:19 | 24.41076 | 121.02070 | 33002 ft | 510 kts | 42° |
| 2026-04-19 17:19 | 24.45662 | 121.08039 | 33041 ft | 513 kts | 48° |
| 2026-04-19 17:20 | 24.50072 | 121.14227 | 33032 ft | 514 kts | 49° |
| 2026-04-19 17:20 | 24.54473 | 121.20359 | 33011 ft | 514 kts | 48° |
| 2026-04-19 17:21 | 24.58925 | 121.26506 | 33039 ft | 514 kts | 48° |
| 2026-04-19 17:21 | 24.63381 | 121.32659 | 33023 ft | 515 kts | 48° |
| 2026-04-19 17:22 | 24.67834 | 121.38826 | 33047 ft | 514 kts | 48° |
| 2026-04-19 17:22 | 24.72289 | 121.44992 | 33018 ft | 514 kts | 48° |
| 2026-04-19 17:23 | 24.76735 | 121.51162 | 32997 ft | 513 kts | 48° |
| 2026-04-19 17:23 | 24.81137 | 121.57279 | 32983 ft | 513 kts | 48° |
| 2026-04-19 17:24 | 24.85576 | 121.63452 | 32969 ft | 514 kts | 48° |
| 2026-04-19 17:24 | 24.90010 | 121.69628 | 32993 ft | 514 kts | 48° |
| 2026-04-19 17:25 | 24.94616 | 121.75625 | 32979 ft | 512 kts | 45° |
| 2026-04-19 17:25 | 24.99332 | 121.81514 | 32969 ft | 513 kts | 45° |
| 2026-04-19 17:26 | 25.04031 | 121.87473 | 32996 ft | 513 kts | 45° |
| 2026-04-19 17:26 | 25.08665 | 121.93412 | 32971 ft | 514 kts | 45° |
| 2026-04-19 17:27 | 25.13331 | 121.99393 | 32982 ft | 513 kts | 45° |
| 2026-04-19 17:27 | 25.17981 | 122.05393 | 32985 ft | 514 kts | 46° |
| 2026-04-19 17:28 | 25.22612 | 122.11403 | 32979 ft | 514 kts | 46° |
| 2026-04-19 17:28 | 25.27211 | 122.17374 | 32979 ft | 513 kts | 46° |
| 2026-04-19 17:29 | 25.31848 | 122.23397 | 32979 ft | 513 kts | 46° |
| 2026-04-19 17:29 | 25.36476 | 122.29417 | 32987 ft | 513 kts | 45° |
| 2026-04-19 17:30 | 25.41101 | 122.35440 | 32978 ft | 513 kts | 45° |
| 2026-04-19 17:30 | 25.45717 | 122.41460 | 32979 ft | 513 kts | 45° |
| 2026-04-19 17:31 | 25.50299 | 122.47442 | 32982 ft | 513 kts | 46° |
| 2026-04-19 17:31 | 25.54935 | 122.53474 | 33001 ft | 513 kts | 45° |
| 2026-04-19 17:32 | 25.59561 | 122.59474 | 32979 ft | 513 kts | 45° |
| 2026-04-19 17:32 | 25.64200 | 122.65501 | 32979 ft | 513 kts | 45° |
| 2026-04-19 17:33 | 25.68822 | 122.71520 | 32984 ft | 513 kts | 45° |
| 2026-04-19 17:33 | 25.73443 | 122.77549 | 32983 ft | 513 kts | 45° |
| 2026-04-19 17:34 | 25.78064 | 122.83584 | 32991 ft | 513 kts | 45° |
| 2026-04-19 17:34 | 25.82683 | 122.89625 | 32979 ft | 513 kts | 45° |
| 2026-04-19 17:35 | 25.87268 | 122.95630 | 32986 ft | 513 kts | 45° |
| 2026-04-19 17:35 | 25.91896 | 123.01697 | 32987 ft | 512 kts | 45° |
| 2026-04-19 17:36 | 25.96481 | 123.07722 | 32994 ft | 513 kts | 45° |
| 2026-04-19 17:36 | 26.01089 | 123.13789 | 32986 ft | 512 kts | 45° |
| 2026-04-19 17:37 | 26.05687 | 123.19851 | 32986 ft | 512 kts | 45° |
| 2026-04-19 17:37 | 26.10238 | 123.25860 | 32989 ft | 511 kts | 45° |
| 2026-04-19 17:38 | 26.14824 | 123.31922 | 33002 ft | 511 kts | 44° |
| 2026-04-19 17:38 | 26.19408 | 123.37989 | 32989 ft | 511 kts | 44° |
| 2026-04-19 17:39 | 26.23212 | 123.43029 | 32989 ft | 511 kts | 44° |
| 2026-04-19 17:39 | 26.28526 | 123.50082 | 32991 ft | 511 kts | 44° |
| 2026-04-19 17:40 | 26.32320 | 123.55124 | 33019 ft | 511 kts | 44° |
| 2026-04-19 17:40 | 26.36888 | 123.61201 | 32995 ft | 511 kts | 44° |
| 2026-04-19 17:41 | 26.41447 | 123.67275 | 32989 ft | 510 kts | 44° |
| 2026-04-19 17:41 | 26.45999 | 123.73349 | 32987 ft | 510 kts | 44° |
| 2026-04-19 17:42 | 26.50548 | 123.79425 | 33005 ft | 510 kts | 44° |
| 2026-04-19 17:42 | 26.55090 | 123.85502 | 32998 ft | 510 kts | 44° |
| 2026-04-19 17:43 | 26.59631 | 123.91585 | 32983 ft | 510 kts | 44° |
| 2026-04-19 17:43 | 26.64142 | 123.97637 | 33000 ft | 509 kts | 44° |
| 2026-04-19 17:44 | 26.68683 | 124.03728 | 32998 ft | 509 kts | 44° |
| 2026-04-19 17:44 | 26.73225 | 124.09811 | 32974 ft | 509 kts | 44° |
| 2026-04-19 17:45 | 26.77775 | 124.15915 | 32995 ft | 510 kts | 44° |
| 2026-04-19 17:45 | 26.82289 | 124.21981 | 32999 ft | 510 kts | 44° |
| 2026-04-19 17:46 | 26.86833 | 124.28098 | 32997 ft | 510 kts | 44° |
| 2026-04-19 17:46 | 26.91380 | 124.34229 | 32993 ft | 511 kts | 43° |
| 2026-04-19 17:47 | 26.95933 | 124.40374 | 32996 ft | 511 kts | 43° |
| 2026-04-19 17:47 | 27.00448 | 124.46469 | 32991 ft | 511 kts | 43° |
| 2026-04-19 17:48 | 27.05004 | 124.52606 | 32984 ft | 511 kts | 43° |
| 2026-04-19 17:48 | 27.09559 | 124.58750 | 32988 ft | 512 kts | 43° |
| 2026-04-19 17:49 | 27.14112 | 124.64903 | 32991 ft | 512 kts | 43° |
| 2026-04-19 17:49 | 27.18634 | 124.71026 | 32988 ft | 511 kts | 43° |
| 2026-04-19 17:50 | 27.23175 | 124.77183 | 32988 ft | 511 kts | 43° |
| 2026-04-19 17:50 | 27.27704 | 124.83331 | 32996 ft | 511 kts | 42° |
| 2026-04-19 17:51 | 27.32232 | 124.89487 | 32989 ft | 510 kts | 42° |
| 2026-04-19 17:51 | 27.36762 | 124.95656 | 32987 ft | 510 kts | 42° |
| 2026-04-19 17:52 | 27.41283 | 125.01812 | 32989 ft | 509 kts | 42° |
| 2026-04-19 17:52 | 27.45794 | 125.07899 | 32978 ft | 509 kts | 41° |
| 2026-04-19 17:53 | 27.50335 | 125.14015 | 32982 ft | 508 kts | 41° |
| 2026-04-19 17:53 | 27.54865 | 125.20132 | 32980 ft | 508 kts | 41° |
| 2026-04-19 17:54 | 27.59379 | 125.26246 | 33018 ft | 508 kts | 41° |
| 2026-04-19 17:54 | 27.63904 | 125.32383 | 32987 ft | 508 kts | 41° |
| 2026-04-19 17:55 | 27.68394 | 125.38483 | 32987 ft | 508 kts | 41° |
| 2026-04-19 17:55 | 27.72912 | 125.44630 | 32984 ft | 507 kts | 41° |
| 2026-04-19 17:56 | 27.77424 | 125.50776 | 33013 ft | 507 kts | 42° |
| 2026-04-19 17:56 | 27.81923 | 125.56913 | 32982 ft | 506 kts | 42° |
| 2026-04-19 17:57 | 27.86379 | 125.63001 | 32975 ft | 505 kts | 42° |
| 2026-04-19 17:57 | 27.90848 | 125.69115 | 32977 ft | 504 kts | 42° |
| 2026-04-19 17:58 | 27.95308 | 125.75224 | 33004 ft | 503 kts | 42° |
| 2026-04-19 17:58 | 27.99766 | 125.81339 | 32980 ft | 503 kts | 42° |
| 2026-04-19 17:59 | 28.04189 | 125.87417 | 32973 ft | 502 kts | 42° |
| 2026-04-19 17:59 | 28.08631 | 125.93528 | 32974 ft | 502 kts | 42° |
| 2026-04-19 18:00 | 28.13065 | 125.99636 | 32989 ft | 502 kts | 43° |
| 2026-04-19 18:00 | 28.17477 | 126.05724 | 32977 ft | 502 kts | 43° |
| 2026-04-19 18:01 | 28.21900 | 126.11837 | 32979 ft | 501 kts | 43° |
| 2026-04-19 18:01 | 28.26317 | 126.17949 | 32976 ft | 501 kts | 43° |
| 2026-04-19 18:02 | 28.30733 | 126.24068 | 32969 ft | 500 kts | 43° |
| 2026-04-19 18:02 | 28.35149 | 126.30196 | 32960 ft | 501 kts | 43° |
| 2026-04-19 18:03 | 28.39570 | 126.36340 | 32968 ft | 502 kts | 44° |
| 2026-04-19 18:03 | 28.43968 | 126.42461 | 32965 ft | 503 kts | 44° |
| 2026-04-19 18:04 | 28.48401 | 126.48640 | 32966 ft | 504 kts | 44° |
| 2026-04-19 18:04 | 28.52835 | 126.54830 | 32962 ft | 505 kts | 44° |
| 2026-04-19 18:05 | 28.57283 | 126.61048 | 32962 ft | 507 kts | 44° |
| 2026-04-19 18:05 | 28.61732 | 126.67278 | 32989 ft | 507 kts | 44° |
| 2026-04-19 18:06 | 28.66180 | 126.73516 | 32963 ft | 507 kts | 44° |
| 2026-04-19 18:06 | 28.70619 | 126.79751 | 32955 ft | 507 kts | 44° |
| 2026-04-19 18:07 | 28.77251 | 126.89082 | 32957 ft | 507 kts | 44° |
| 2026-04-19 18:08 | 28.81691 | 126.95339 | 32962 ft | 507 kts | 45° |
| 2026-04-19 18:08 | 28.86126 | 127.01599 | 32934 ft | 508 kts | 45° |
| 2026-04-19 18:09 | 28.90568 | 127.07879 | 32954 ft | 509 kts | 45° |
| 2026-04-19 18:09 | 28.95023 | 127.14186 | 32980 ft | 511 kts | 45° |
| 2026-04-19 18:10 | 28.99485 | 127.20514 | 32952 ft | 510 kts | 45° |
| 2026-04-19 18:10 | 29.03936 | 127.26838 | 32947 ft | 510 kts | 45° |
| 2026-04-19 18:11 | 29.08354 | 127.33122 | 32953 ft | 511 kts | 45° |
| 2026-04-19 18:11 | 29.12811 | 127.39471 | 32958 ft | 512 kts | 46° |
| 2026-04-19 18:12 | 29.17267 | 127.45829 | 32949 ft | 511 kts | 46° |
| 2026-04-19 18:12 | 29.21716 | 127.52186 | 32942 ft | 512 kts | 46° |
| 2026-04-19 18:13 | 29.26179 | 127.58572 | 32974 ft | 514 kts | 46° |
| 2026-04-19 18:13 | 29.30625 | 127.64947 | 32943 ft | 515 kts | 46° |
| 2026-04-19 18:14 | 29.35086 | 127.71353 | 32938 ft | 513 kts | 46° |
| 2026-04-19 18:14 | 29.39547 | 127.77768 | 32934 ft | 514 kts | 46° |
| 2026-04-19 18:15 | 29.44029 | 127.84222 | 32938 ft | 516 kts | 46° |
| 2026-04-19 18:15 | 29.48497 | 127.90669 | 32940 ft | 517 kts | 46° |
| 2026-04-19 18:16 | 29.52968 | 127.97128 | 32925 ft | 517 kts | 46° |
| 2026-04-19 18:16 | 29.57422 | 128.03562 | 32968 ft | 518 kts | 47° |
| 2026-04-19 18:17 | 29.61915 | 128.10059 | 32934 ft | 519 kts | 47° |
| 2026-04-19 18:17 | 29.66407 | 128.16568 | 32928 ft | 519 kts | 47° |
| 2026-04-19 18:18 | 29.70891 | 128.23078 | 32918 ft | 519 kts | 47° |
| 2026-04-19 18:18 | 29.75375 | 128.29596 | 32934 ft | 520 kts | 47° |
| 2026-04-19 18:19 | 29.79842 | 128.36101 | 32930 ft | 520 kts | 47° |
| 2026-04-19 18:19 | 29.84328 | 128.42645 | 32918 ft | 520 kts | 47° |
| 2026-04-19 18:20 | 29.88809 | 128.49193 | 32931 ft | 519 kts | 47° |
| 2026-04-19 18:20 | 29.93267 | 128.55719 | 32915 ft | 515 kts | 47° |
| 2026-04-19 18:21 | 29.97686 | 128.62198 | 32912 ft | 511 kts | 47° |
| 2026-04-19 18:21 | 30.02040 | 128.68587 | 32906 ft | 513 kts | 47° |
| 2026-04-19 18:22 | 30.06507 | 128.75146 | 32938 ft | 524 kts | 47° |
| 2026-04-19 18:22 | 30.11018 | 128.81794 | 32914 ft | 525 kts | 48° |
| 2026-04-19 18:23 | 30.15521 | 128.88442 | 32914 ft | 524 kts | 48° |
| 2026-04-19 18:23 | 30.19984 | 128.95039 | 32922 ft | 524 kts | 48° |
| 2026-04-19 18:24 | 30.24472 | 129.01680 | 32914 ft | 523 kts | 48° |
| 2026-04-19 18:24 | 30.28953 | 129.08320 | 32912 ft | 523 kts | 48° |
| 2026-04-19 18:25 | 30.33422 | 129.14954 | 32917 ft | 523 kts | 49° |
| 2026-04-19 18:25 | 30.37897 | 129.21608 | 32916 ft | 523 kts | 49° |
| 2026-04-19 18:26 | 30.42368 | 129.28270 | 32922 ft | 524 kts | 49° |
| 2026-04-19 18:26 | 30.46812 | 129.34901 | 32935 ft | 524 kts | 49° |
| 2026-04-19 18:27 | 30.51288 | 129.41591 | 32911 ft | 526 kts | 49° |
| 2026-04-19 18:27 | 30.55776 | 129.48311 | 32915 ft | 527 kts | 49° |
| 2026-04-19 18:28 | 30.60270 | 129.55052 | 32939 ft | 528 kts | 49° |
| 2026-04-19 18:28 | 30.64755 | 129.61791 | 32897 ft | 527 kts | 49° |
| 2026-04-19 18:29 | 30.69214 | 129.68503 | 32905 ft | 527 kts | 49° |
| 2026-04-19 18:29 | 30.73687 | 129.75247 | 32919 ft | 527 kts | 49° |
| 2026-04-19 18:30 | 30.78162 | 129.82005 | 32886 ft | 527 kts | 50° |
| 2026-04-19 18:30 | 30.82645 | 129.88787 | 32917 ft | 529 kts | 50° |
| 2026-04-19 18:31 | 30.86210 | 129.94596 | 32912 ft | 532 kts | 56° |
| 2026-04-19 18:31 | 30.90104 | 130.01954 | 32896 ft | 533 kts | 57° |
| 2026-04-19 18:32 | 30.93959 | 130.09334 | 32891 ft | 532 kts | 57° |
| 2026-04-19 18:32 | 30.97833 | 130.16690 | 32897 ft | 533 kts | 57° |
| 2026-04-19 18:33 | 31.01724 | 130.24040 | 32906 ft | 532 kts | 57° |
| 2026-04-19 18:33 | 31.05612 | 130.31388 | 32893 ft | 532 kts | 57° |
| 2026-04-19 18:34 | 31.09496 | 130.38750 | 32894 ft | 533 kts | 57° |
| 2026-04-19 18:34 | 31.13363 | 130.46098 | 32940 ft | 534 kts | 57° |
| 2026-04-19 18:35 | 31.17243 | 130.53483 | 32902 ft | 533 kts | 57° |
| 2026-04-19 18:35 | 31.21123 | 130.60883 | 32908 ft | 533 kts | 58° |
| 2026-04-19 18:36 | 31.25000 | 130.68292 | 32913 ft | 534 kts | 58° |
| 2026-04-19 18:36 | 31.28843 | 130.75649 | 32904 ft | 532 kts | 58° |
| 2026-04-19 18:37 | 31.32692 | 130.83032 | 32902 ft | 531 kts | 58° |
| 2026-04-19 18:37 | 31.36529 | 130.90406 | 32907 ft | 529 kts | 58° |
| 2026-04-19 18:38 | 31.40358 | 130.97779 | 32914 ft | 530 kts | 58° |
| 2026-04-19 18:38 | 31.44198 | 131.05188 | 32912 ft | 533 kts | 58° |
| 2026-04-19 18:39 | 31.48050 | 131.12635 | 32921 ft | 536 kts | 58° |
| 2026-04-19 18:39 | 31.51891 | 131.20073 | 32927 ft | 538 kts | 58° |
| 2026-04-19 18:40 | 31.55775 | 131.27612 | 32920 ft | 537 kts | 58° |
| 2026-04-19 18:40 | 31.59629 | 131.35106 | 32924 ft | 536 kts | 59° |
| 2026-04-19 18:41 | 31.63452 | 131.42556 | 32947 ft | 536 kts | 59° |
| 2026-04-19 18:41 | 31.67287 | 131.50055 | 32940 ft | 534 kts | 59° |
| 2026-04-19 18:42 | 31.71105 | 131.57533 | 32920 ft | 534 kts | 59° |
| 2026-04-19 18:42 | 31.74959 | 131.65099 | 32947 ft | 542 kts | 59° |
| 2026-04-19 18:43 | 31.78815 | 131.72684 | 32933 ft | 538 kts | 59° |
| 2026-04-19 18:43 | 31.82651 | 131.80245 | 32916 ft | 538 kts | 59° |
| 2026-04-19 18:44 | 31.86496 | 131.87837 | 32948 ft | 550 kts | 59° |
| 2026-04-19 18:44 | 31.90407 | 131.95576 | 32934 ft | 549 kts | 59° |
| 2026-04-19 18:45 | 31.94304 | 132.03302 | 32925 ft | 548 kts | 59° |
| 2026-04-19 18:45 | 31.98190 | 132.11024 | 32944 ft | 547 kts | 59° |
| 2026-04-19 18:46 | 32.02064 | 132.18738 | 32934 ft | 547 kts | 59° |
| 2026-04-19 18:46 | 32.05916 | 132.26422 | 32939 ft | 547 kts | 60° |
| 2026-04-19 18:47 | 32.09793 | 132.34176 | 32938 ft | 550 kts | 60° |
| 2026-04-19 18:47 | 32.13597 | 132.42016 | 32924 ft | 551 kts | 64° |
| 2026-04-19 18:48 | 32.17052 | 132.50127 | 32948 ft | 553 kts | 65° |
| 2026-04-19 18:48 | 32.20450 | 132.58284 | 32940 ft | 554 kts | 65° |
| 2026-04-19 18:49 | 32.23859 | 132.66403 | 32933 ft | 554 kts | 65° |
| 2026-04-19 18:49 | 32.27301 | 132.74563 | 32950 ft | 555 kts | 65° |
| 2026-04-19 18:50 | 32.30747 | 132.82742 | 32951 ft | 555 kts | 64° |
| 2026-04-19 18:50 | 32.34158 | 132.90861 | 32949 ft | 554 kts | 64° |
| 2026-04-19 18:51 | 32.37575 | 132.99016 | 32972 ft | 553 kts | 65° |
| 2026-04-19 18:51 | 32.40978 | 133.07160 | 32947 ft | 551 kts | 65° |
| 2026-04-19 18:52 | 32.46068 | 133.19374 | 32957 ft | 551 kts | 65° |
| 2026-04-19 18:52 | 32.49433 | 133.27470 | 32944 ft | 552 kts | 65° |
| 2026-04-19 18:53 | 32.52831 | 133.35669 | 32966 ft | 556 kts | 65° |
| 2026-04-19 18:53 | 32.56250 | 133.43933 | 32943 ft | 560 kts | 65° |
| 2026-04-19 18:54 | 32.59707 | 133.52240 | 32976 ft | 562 kts | 65° |
| 2026-04-19 18:54 | 32.63175 | 133.60549 | 32966 ft | 561 kts | 65° |
| 2026-04-19 18:55 | 32.66593 | 133.68855 | 32964 ft | 560 kts | 66° |
| 2026-04-19 18:55 | 32.69984 | 133.77191 | 32972 ft | 560 kts | 66° |
| 2026-04-19 18:56 | 32.73344 | 133.85458 | 32951 ft | 560 kts | 66° |
| 2026-04-19 18:56 | 32.76734 | 133.93801 | 33007 ft | 561 kts | 66° |
| 2026-04-19 18:57 | 32.80129 | 134.02175 | 32982 ft | 561 kts | 66° |
| 2026-04-19 18:57 | 32.83186 | 134.10706 | 32972 ft | 559 kts | 76° |
| 2026-04-19 18:58 | 32.85348 | 134.19518 | 33001 ft | 559 kts | 77° |
| 2026-04-19 18:58 | 32.87488 | 134.28432 | 32974 ft | 561 kts | 77° |
| 2026-04-19 18:59 | 32.89688 | 134.37361 | 32984 ft | 562 kts | 77° |
| 2026-04-19 18:59 | 32.91909 | 134.46293 | 32984 ft | 563 kts | 77° |
| 2026-04-19 19:00 | 32.94127 | 134.55256 | 32986 ft | 564 kts | 77° |
| 2026-04-19 19:00 | 32.96325 | 134.64192 | 32963 ft | 565 kts | 77° |
| 2026-04-19 19:01 | 32.98530 | 134.73186 | 33014 ft | 566 kts | 77° |
| 2026-04-19 19:01 | 33.00457 | 134.82284 | 32985 ft | 562 kts | 85° |
| 2026-04-19 19:02 | 33.01430 | 134.91488 | 32995 ft | 559 kts | 88° |
| 2026-04-19 19:02 | 33.02358 | 135.00676 | 32964 ft | 559 kts | 88° |
| 2026-04-19 19:03 | 33.03359 | 135.09873 | 32990 ft | 559 kts | 88° |
| 2026-04-19 19:03 | 33.04361 | 135.19066 | 32995 ft | 560 kts | 88° |
| 2026-04-19 19:04 | 33.05332 | 135.28214 | 32992 ft | 560 kts | 88° |
| 2026-04-19 19:04 | 33.06300 | 135.37426 | 32996 ft | 561 kts | 88° |
| 2026-04-19 19:05 | 33.07269 | 135.46677 | 33011 ft | 561 kts | 88° |
| 2026-04-19 19:05 | 33.08230 | 135.55916 | 32993 ft | 562 kts | 88° |
| 2026-04-19 19:06 | 33.09186 | 135.65172 | 32998 ft | 562 kts | 88° |
| 2026-04-19 19:06 | 33.10131 | 135.74426 | 33000 ft | 562 kts | 88° |
| 2026-04-19 19:07 | 33.11064 | 135.83649 | 32999 ft | 563 kts | 88° |
| 2026-04-19 19:07 | 33.11998 | 135.92931 | 33001 ft | 563 kts | 88° |
| 2026-04-19 19:08 | 33.12926 | 136.02221 | 33010 ft | 563 kts | 88° |
| 2026-04-19 19:08 | 33.13841 | 136.11457 | 32995 ft | 564 kts | 89° |
| 2026-04-19 19:09 | 33.14756 | 136.20762 | 33006 ft | 564 kts | 89° |
| 2026-04-19 19:09 | 33.15664 | 136.30073 | 33011 ft | 565 kts | 89° |
| 2026-04-19 19:10 | 33.16567 | 136.39401 | 33009 ft | 566 kts | 89° |
| 2026-04-19 19:10 | 33.17466 | 136.48745 | 33016 ft | 567 kts | 89° |
| 2026-04-19 19:11 | 33.18362 | 136.58112 | 33014 ft | 568 kts | 89° |
| 2026-04-19 19:11 | 33.19251 | 136.67415 | 33006 ft | 568 kts | 89° |
| 2026-04-19 19:12 | 33.20142 | 136.76804 | 33015 ft | 568 kts | 89° |
| 2026-04-19 19:12 | 33.21022 | 136.86180 | 33016 ft | 568 kts | 89° |
| 2026-04-19 19:13 | 33.21897 | 136.95575 | 33015 ft | 569 kts | 89° |
| 2026-04-19 19:13 | 33.22767 | 137.04966 | 33011 ft | 569 kts | 89° |
| 2026-04-19 19:14 | 33.24201 | 137.14312 | 33008 ft | 577 kts | 77° |
| 2026-04-19 19:14 | 33.26559 | 137.23475 | 33019 ft | 578 kts | 76° |
| 2026-04-19 19:15 | 33.28937 | 137.32663 | 33022 ft | 578 kts | 77° |
| 2026-04-19 19:15 | 33.31239 | 137.41854 | 33017 ft | 578 kts | 77° |
| 2026-04-19 19:16 | 33.33495 | 137.51005 | 33026 ft | 578 kts | 77° |
| 2026-04-19 19:16 | 33.35768 | 137.60239 | 33019 ft | 578 kts | 77° |
| 2026-04-19 19:17 | 33.38040 | 137.69473 | 33029 ft | 578 kts | 77° |
| 2026-04-19 19:17 | 33.40305 | 137.78711 | 33027 ft | 578 kts | 77° |
| 2026-04-19 19:18 | 33.42654 | 137.87914 | 33021 ft | 580 kts | 72° |
| 2026-04-19 19:18 | 33.45985 | 137.96674 | 33032 ft | 583 kts | 61° |
| 2026-04-19 19:19 | 33.50360 | 138.04884 | 33038 ft | 584 kts | 57° |
| 2026-04-19 19:20 | 33.56821 | 138.17288 | 33038 ft | 585 kts | 59° |
| 2026-04-19 19:20 | 33.60336 | 138.24213 | 33028 ft | 585 kts | 59° |
| 2026-04-19 19:21 | 33.64587 | 138.32574 | 33037 ft | 586 kts | 59° |
| 2026-04-19 19:21 | 33.68846 | 138.40938 | 33037 ft | 586 kts | 59° |
| 2026-04-19 19:22 | 33.73063 | 138.49238 | 33033 ft | 586 kts | 59° |
| 2026-04-19 19:22 | 33.77304 | 138.57604 | 33044 ft | 586 kts | 59° |
| 2026-04-19 19:23 | 33.81545 | 138.65987 | 33040 ft | 586 kts | 59° |
| 2026-04-19 19:23 | 33.85775 | 138.74369 | 33040 ft | 586 kts | 59° |
| 2026-04-19 19:24 | 33.90008 | 138.82778 | 33046 ft | 586 kts | 59° |
| 2026-04-19 19:24 | 33.94230 | 138.91185 | 33044 ft | 586 kts | 59° |
| 2026-04-19 19:25 | 33.98417 | 138.99542 | 33042 ft | 586 kts | 59° |
| 2026-04-19 19:25 | 34.02627 | 139.07964 | 33037 ft | 586 kts | 59° |
| 2026-04-19 19:26 | 34.06825 | 139.16383 | 33046 ft | 585 kts | 59° |
| 2026-04-19 19:26 | 34.11019 | 139.24814 | 33047 ft | 585 kts | 59° |
| 2026-04-19 19:27 | 34.15198 | 139.33229 | 33046 ft | 585 kts | 59° |
| 2026-04-19 19:27 | 34.19382 | 139.41665 | 33048 ft | 585 kts | 59° |
| 2026-04-19 19:28 | 34.23551 | 139.50095 | 33050 ft | 585 kts | 59° |
| 2026-04-19 19:28 | 34.27692 | 139.58489 | 33045 ft | 585 kts | 59° |
| 2026-04-19 19:29 | 34.31852 | 139.66941 | 33055 ft | 585 kts | 59° |
| 2026-04-19 19:29 | 34.36014 | 139.75420 | 33033 ft | 585 kts | 59° |
| 2026-04-19 19:30 | 34.40162 | 139.83888 | 33049 ft | 585 kts | 59° |
| 2026-04-19 19:30 | 34.44309 | 139.92376 | 33048 ft | 585 kts | 59° |
| 2026-04-19 19:31 | 34.48446 | 140.00862 | 33056 ft | 585 kts | 59° |
| 2026-04-19 19:31 | 34.52583 | 140.09370 | 33057 ft | 585 kts | 59° |
| 2026-04-19 19:32 | 34.56705 | 140.17867 | 33038 ft | 585 kts | 59° |
| 2026-04-19 19:32 | 34.60806 | 140.26343 | 33055 ft | 585 kts | 59° |
| 2026-04-19 19:33 | 34.64923 | 140.34874 | 33047 ft | 585 kts | 59° |
| 2026-04-19 19:33 | 34.69026 | 140.43394 | 33052 ft | 585 kts | 59° |
| 2026-04-19 19:34 | 34.73081 | 140.51985 | 33059 ft | 584 kts | 60° |
| 2026-04-19 19:34 | 34.77031 | 140.60621 | 33060 ft | 584 kts | 60° |
| 2026-04-19 19:35 | 34.80964 | 140.69258 | 33059 ft | 583 kts | 60° |
| 2026-04-19 19:35 | 34.84908 | 140.77890 | 33059 ft | 583 kts | 60° |
| 2026-04-19 19:36 | 34.88824 | 140.86455 | 33059 ft | 583 kts | 60° |
| 2026-04-19 19:36 | 34.92763 | 140.95092 | 33068 ft | 582 kts | 59° |
| 2026-04-19 19:37 | 34.96692 | 141.03732 | 33075 ft | 582 kts | 60° |
| 2026-04-19 19:37 | 35.00612 | 141.12379 | 33047 ft | 582 kts | 59° |
| 2026-04-19 19:38 | 35.04528 | 141.21038 | 33078 ft | 582 kts | 59° |
| 2026-04-19 19:38 | 35.08434 | 141.29695 | 33094 ft | 582 kts | 59° |
| 2026-04-19 19:39 | 35.12338 | 141.38370 | 33071 ft | 582 kts | 59° |
| 2026-04-19 19:39 | 35.16205 | 141.46986 | 33074 ft | 582 kts | 59° |
| 2026-04-19 19:40 | 35.20087 | 141.55655 | 33076 ft | 581 kts | 59° |
| 2026-04-19 19:40 | 35.23964 | 141.64336 | 33071 ft | 581 kts | 59° |
| 2026-04-19 19:41 | 35.27837 | 141.73030 | 33076 ft | 581 kts | 59° |
| 2026-04-19 19:41 | 35.31691 | 141.81705 | 33080 ft | 581 kts | 59° |
| 2026-04-19 19:42 | 35.35526 | 141.90359 | 33079 ft | 580 kts | 59° |
| 2026-04-19 19:42 | 35.39371 | 141.99057 | 33083 ft | 580 kts | 59° |
| 2026-04-19 19:43 | 35.43216 | 142.07780 | 33085 ft | 580 kts | 59° |
| 2026-04-19 19:43 | 35.47049 | 142.16495 | 33082 ft | 580 kts | 59° |
| 2026-04-19 19:44 | 35.50872 | 142.25209 | 33086 ft | 580 kts | 59° |
| 2026-04-19 19:44 | 35.54691 | 142.33941 | 33091 ft | 579 kts | 59° |
| 2026-04-19 19:45 | 35.58470 | 142.42600 | 33080 ft | 579 kts | 59° |
| 2026-04-19 19:45 | 35.62272 | 142.51335 | 33086 ft | 579 kts | 59° |
| 2026-04-19 19:46 | 35.66068 | 142.60082 | 33091 ft | 578 kts | 59° |
| 2026-04-19 19:46 | 35.69831 | 142.68772 | 33086 ft | 578 kts | 59° |
| 2026-04-19 19:47 | 35.73600 | 142.77501 | 33092 ft | 577 kts | 59° |
| 2026-04-19 19:47 | 35.77364 | 142.86242 | 33092 ft | 576 kts | 59° |
| 2026-04-19 19:48 | 35.81107 | 142.94956 | 33091 ft | 575 kts | 59° |
| 2026-04-19 19:48 | 35.84850 | 143.03693 | 33096 ft | 575 kts | 59° |
| 2026-04-19 19:49 | 35.88548 | 143.12346 | 33093 ft | 574 kts | 59° |
| 2026-04-19 19:49 | 35.91867 | 143.21320 | 33088 ft | 577 kts | 69° |
| 2026-04-19 19:50 | 35.93941 | 143.30892 | 33097 ft | 578 kts | 81° |
| 2026-04-19 19:50 | 35.94956 | 143.40720 | 33102 ft | 577 kts | 84° |
| 2026-04-19 19:51 | 35.95873 | 143.50568 | 33105 ft | 578 kts | 84° |
| 2026-04-19 19:51 | 35.96838 | 143.60437 | 33104 ft | 578 kts | 83° |
| 2026-04-19 19:52 | 35.97825 | 143.70217 | 33095 ft | 578 kts | 83° |
| 2026-04-19 19:52 | 35.98817 | 143.80061 | 33080 ft | 578 kts | 83° |
| 2026-04-19 19:53 | 35.99796 | 143.89917 | 33088 ft | 578 kts | 83° |
| 2026-04-19 19:53 | 36.00764 | 143.99780 | 33096 ft | 578 kts | 83° |
| 2026-04-19 19:54 | 36.01724 | 144.09657 | 33094 ft | 579 kts | 83° |
| 2026-04-19 19:54 | 36.02671 | 144.19482 | 33101 ft | 579 kts | 83° |
| 2026-04-19 19:55 | 36.03617 | 144.29374 | 33106 ft | 580 kts | 83° |
| 2026-04-19 19:55 | 36.04556 | 144.39281 | 33099 ft | 580 kts | 83° |
| 2026-04-19 19:56 | 36.05486 | 144.49177 | 33099 ft | 579 kts | 83° |
| 2026-04-19 19:56 | 36.06407 | 144.59068 | 33100 ft | 579 kts | 83° |
| 2026-04-19 19:57 | 36.07319 | 144.68952 | 33091 ft | 578 kts | 83° |
| 2026-04-19 19:57 | 36.08224 | 144.78857 | 33107 ft | 579 kts | 83° |
| 2026-04-19 19:58 | 36.09121 | 144.88761 | 33105 ft | 580 kts | 83° |
| 2026-04-19 19:58 | 36.10011 | 144.98684 | 33094 ft | 581 kts | 83° |
| 2026-04-19 19:59 | 36.10889 | 145.08560 | 33102 ft | 581 kts | 83° |
| 2026-04-19 19:59 | 36.11763 | 145.18486 | 33094 ft | 581 kts | 83° |
| 2026-04-19 20:00 | 36.12629 | 145.28417 | 33123 ft | 580 kts | 83° |
| 2026-04-19 20:00 | 36.13501 | 145.38334 | 33082 ft | 579 kts | 81° |
| 2026-04-19 20:01 | 36.15416 | 145.47956 | 33099 ft | 573 kts | 67° |
| 2026-04-19 20:01 | 36.18672 | 145.56804 | 33096 ft | 565 kts | 54° |
| 2026-04-19 20:02 | 36.22647 | 145.65211 | 33097 ft | 564 kts | 54° |
| 2026-04-19 20:02 | 36.26610 | 145.73609 | 33088 ft | 564 kts | 54° |
| 2026-04-19 20:03 | 36.30519 | 145.82055 | 33101 ft | 564 kts | 55° |
| 2026-04-19 20:03 | 36.34397 | 145.90527 | 33089 ft | 565 kts | 55° |
| 2026-04-19 20:04 | 36.38266 | 145.99006 | 33095 ft | 564 kts | 55° |
| 2026-04-19 20:04 | 36.42146 | 146.07515 | 33280 ft | 568 kts | 55° |
| 2026-04-19 20:04 | 36.44069 | 146.11737 | 33611 ft | 568 kts | 55° |
| 2026-04-19 20:05 | 36.46011 | 146.16009 | 33939 ft | 568 kts | 55° |
| 2026-04-19 20:05 | 36.47949 | 146.20279 | 34217 ft | 568 kts | 55° |
| 2026-04-19 20:05 | 36.49898 | 146.24576 | 34429 ft | 569 kts | 55° |
| 2026-04-19 20:05 | 36.51844 | 146.28871 | 34608 ft | 571 kts | 55° |
| 2026-04-19 20:06 | 36.53792 | 146.33175 | 34809 ft | 572 kts | 55° |
| 2026-04-19 20:06 | 36.55744 | 146.37495 | 34987 ft | 574 kts | 55° |
| 2026-04-19 20:06 | 36.57709 | 146.41846 | 35039 ft | 578 kts | 55° |
| 2026-04-19 20:07 | 36.61645 | 146.50589 | 35088 ft | 578 kts | 55° |
| 2026-04-19 20:07 | 36.64892 | 146.57828 | 35085 ft | 573 kts | 55° |
| 2026-04-19 20:08 | 36.68734 | 146.66407 | 35096 ft | 571 kts | 55° |
| 2026-04-19 20:08 | 36.71950 | 146.73598 | 35096 ft | 571 kts | 55° |
| 2026-04-19 20:09 | 36.75813 | 146.82254 | 35095 ft | 571 kts | 55° |
| 2026-04-19 20:09 | 36.79668 | 146.90919 | 35103 ft | 572 kts | 55° |
| 2026-04-19 20:10 | 36.83530 | 146.99622 | 35097 ft | 573 kts | 55° |
| 2026-04-19 20:10 | 36.87395 | 147.08358 | 35106 ft | 575 kts | 56° |
| 2026-04-19 20:11 | 36.91253 | 147.17101 | 35110 ft | 574 kts | 56° |
| 2026-04-19 20:11 | 36.95078 | 147.25795 | 35096 ft | 573 kts | 56° |
| 2026-04-19 20:12 | 36.98914 | 147.34535 | 35088 ft | 572 kts | 56° |
| 2026-04-19 20:12 | 37.02733 | 147.43261 | 35095 ft | 570 kts | 56° |
| 2026-04-19 20:13 | 37.06536 | 147.51971 | 35089 ft | 569 kts | 56° |
| 2026-04-19 20:13 | 37.10326 | 147.60674 | 35093 ft | 569 kts | 56° |
| 2026-04-19 20:14 | 37.14110 | 147.69388 | 35107 ft | 568 kts | 56° |
| 2026-04-19 20:14 | 37.17860 | 147.78046 | 35094 ft | 568 kts | 56° |
| 2026-04-19 20:15 | 37.21630 | 147.86774 | 35095 ft | 568 kts | 56° |
| 2026-04-19 20:15 | 37.25393 | 147.95508 | 35112 ft | 569 kts | 56° |
| 2026-04-19 20:16 | 37.29155 | 148.04265 | 35099 ft | 569 kts | 56° |
| 2026-04-19 20:16 | 37.32886 | 148.12973 | 35098 ft | 569 kts | 56° |
| 2026-04-19 20:17 | 37.36632 | 148.21740 | 35117 ft | 569 kts | 56° |
| 2026-04-19 20:17 | 37.40376 | 148.30527 | 35109 ft | 569 kts | 56° |
| 2026-04-19 20:18 | 37.44113 | 148.39321 | 35093 ft | 569 kts | 57° |
| 2026-04-19 20:18 | 37.47837 | 148.48108 | 35112 ft | 568 kts | 57° |
| 2026-04-19 20:19 | 37.51553 | 148.56903 | 35095 ft | 568 kts | 57° |
| 2026-04-19 20:19 | 37.55262 | 148.65701 | 35111 ft | 568 kts | 57° |
| 2026-04-19 20:20 | 37.58940 | 148.74453 | 35100 ft | 568 kts | 57° |
| 2026-04-19 20:20 | 37.62635 | 148.83268 | 35102 ft | 567 kts | 57° |
| 2026-04-19 20:21 | 37.66316 | 148.92074 | 35092 ft | 567 kts | 57° |
| 2026-04-19 20:21 | 37.69986 | 149.00879 | 35097 ft | 566 kts | 57° |
| 2026-04-19 20:22 | 37.73647 | 149.09687 | 35105 ft | 566 kts | 57° |
| 2026-04-19 20:22 | 37.77275 | 149.18439 | 35098 ft | 566 kts | 57° |
| 2026-04-19 20:23 | 37.80923 | 149.27265 | 35096 ft | 565 kts | 57° |
| 2026-04-19 20:23 | 37.84556 | 149.36076 | 35097 ft | 565 kts | 57° |
| 2026-04-19 20:24 | 37.88184 | 149.44903 | 35094 ft | 565 kts | 57° |
| 2026-04-19 20:24 | 37.91782 | 149.53680 | 35098 ft | 565 kts | 57° |
| 2026-04-19 20:25 | 37.95398 | 149.62526 | 35117 ft | 565 kts | 57° |
| 2026-04-19 20:25 | 37.99005 | 149.71376 | 35108 ft | 565 kts | 57° |
| 2026-04-19 20:26 | 38.02606 | 149.80237 | 35087 ft | 565 kts | 57° |
| 2026-04-19 20:26 | 38.06198 | 149.89101 | 35116 ft | 564 kts | 57° |
| 2026-04-19 20:27 | 38.09779 | 149.97960 | 35095 ft | 564 kts | 57° |
| 2026-04-19 20:27 | 38.13116 | 150.06992 | 35100 ft | 565 kts | 61° |
| 2026-04-19 20:28 | 38.16232 | 150.16150 | 35096 ft | 565 kts | 62° |
| 2026-04-19 20:28 | 38.19327 | 150.25323 | 35106 ft | 564 kts | 62° |
| 2026-04-19 20:29 | 38.22437 | 150.34466 | 35097 ft | 563 kts | 61° |
| 2026-04-19 20:29 | 38.25539 | 150.43553 | 35097 ft | 563 kts | 61° |
| 2026-04-19 20:30 | 38.30203 | 150.57264 | 35104 ft | 563 kts | 61° |
| 2026-04-19 20:30 | 38.33303 | 150.66424 | 35100 ft | 562 kts | 61° |
| 2026-04-19 20:31 | 38.36386 | 150.75565 | 35123 ft | 561 kts | 61° |
| 2026-04-19 20:31 | 38.39461 | 150.84712 | 35105 ft | 561 kts | 61° |
| 2026-04-19 20:32 | 38.42529 | 150.93862 | 35096 ft | 561 kts | 61° |
| 2026-04-19 20:32 | 38.45587 | 151.03013 | 35100 ft | 560 kts | 61° |
| 2026-04-19 20:33 | 38.48621 | 151.12121 | 35099 ft | 561 kts | 61° |
| 2026-04-19 20:33 | 38.51671 | 151.21307 | 35098 ft | 561 kts | 61° |
| 2026-04-19 20:34 | 38.54717 | 151.30512 | 35096 ft | 562 kts | 61° |
| 2026-04-19 20:34 | 38.57757 | 151.39725 | 35105 ft | 563 kts | 61° |
| 2026-04-19 20:35 | 38.60772 | 151.48895 | 35096 ft | 564 kts | 61° |
| 2026-04-19 20:35 | 38.63806 | 151.58151 | 35092 ft | 564 kts | 61° |
| 2026-04-19 20:36 | 38.66833 | 151.67416 | 35107 ft | 564 kts | 61° |
| 2026-04-19 20:36 | 38.69855 | 151.76697 | 35101 ft | 564 kts | 61° |
| 2026-04-19 20:37 | 38.72867 | 151.85976 | 35082 ft | 564 kts | 61° |
| 2026-04-19 20:37 | 38.75870 | 151.95260 | 35103 ft | 564 kts | 61° |
| 2026-04-19 20:38 | 38.78869 | 152.04560 | 35094 ft | 564 kts | 62° |
| 2026-04-19 20:38 | 38.81862 | 152.13871 | 35086 ft | 564 kts | 62° |
| 2026-04-19 20:39 | 38.84843 | 152.23180 | 35083 ft | 564 kts | 62° |
| 2026-04-19 20:39 | 38.87801 | 152.32445 | 35083 ft | 564 kts | 62° |
| 2026-04-19 20:40 | 38.90766 | 152.41762 | 35084 ft | 564 kts | 62° |
| 2026-04-19 20:40 | 38.93726 | 152.51093 | 35087 ft | 564 kts | 62° |
| 2026-04-19 20:41 | 38.96681 | 152.60443 | 35096 ft | 564 kts | 62° |
| 2026-04-19 20:41 | 38.99615 | 152.69756 | 35087 ft | 564 kts | 62° |
| 2026-04-19 20:42 | 39.02553 | 152.79112 | 35081 ft | 564 kts | 62° |
| 2026-04-19 20:42 | 39.05488 | 152.88494 | 35092 ft | 564 kts | 62° |
| 2026-04-19 20:43 | 39.08414 | 152.97878 | 35081 ft | 564 kts | 62° |
| 2026-04-19 20:43 | 39.11328 | 153.07254 | 35075 ft | 564 kts | 62° |
| 2026-04-19 20:44 | 39.14215 | 153.16576 | 35090 ft | 564 kts | 62° |
| 2026-04-19 20:44 | 39.17114 | 153.25965 | 35076 ft | 564 kts | 62° |
| 2026-04-19 20:45 | 39.20006 | 153.35366 | 35074 ft | 563 kts | 62° |
| 2026-04-19 20:45 | 39.22887 | 153.44762 | 35082 ft | 563 kts | 62° |
| 2026-04-19 20:46 | 39.25760 | 153.54166 | 35067 ft | 563 kts | 62° |
| 2026-04-19 20:46 | 39.28627 | 153.63582 | 35064 ft | 563 kts | 63° |
| 2026-04-19 20:47 | 39.31486 | 153.73007 | 35064 ft | 563 kts | 63° |
| 2026-04-19 20:47 | 39.34341 | 153.82446 | 35084 ft | 564 kts | 63° |
| 2026-04-19 20:48 | 39.37190 | 153.91905 | 35060 ft | 564 kts | 63° |
| 2026-04-19 20:48 | 39.40025 | 154.01349 | 35054 ft | 563 kts | 63° |
| 2026-04-19 20:49 | 39.42835 | 154.10743 | 35065 ft | 563 kts | 63° |
| 2026-04-19 20:49 | 39.45649 | 154.20180 | 35055 ft | 562 kts | 63° |
| 2026-04-19 20:50 | 39.48458 | 154.29633 | 35049 ft | 562 kts | 63° |
| 2026-04-19 20:50 | 39.51254 | 154.39077 | 35062 ft | 562 kts | 63° |
| 2026-04-19 20:51 | 39.54045 | 154.48537 | 35051 ft | 562 kts | 63° |
| 2026-04-19 20:51 | 39.56815 | 154.57957 | 35042 ft | 563 kts | 63° |
| 2026-04-19 20:52 | 39.59595 | 154.67447 | 35061 ft | 563 kts | 63° |
| 2026-04-19 20:52 | 39.62372 | 154.76964 | 35033 ft | 565 kts | 63° |
| 2026-04-19 20:53 | 39.65154 | 154.86530 | 35034 ft | 565 kts | 63° |
| 2026-04-19 20:53 | 39.67909 | 154.96036 | 35033 ft | 566 kts | 63° |
| 2026-04-19 20:54 | 39.70675 | 155.05617 | 35032 ft | 567 kts | 63° |
| 2026-04-19 20:54 | 39.73439 | 155.15225 | 35030 ft | 567 kts | 64° |
| 2026-04-19 20:55 | 39.75728 | 155.23212 | 35027 ft | 567 kts | 64° |
| 2026-04-19 20:55 | 39.78474 | 155.32823 | 35024 ft | 567 kts | 64° |
| 2026-04-19 20:56 | 39.81213 | 155.42446 | 35020 ft | 567 kts | 64° |
| 2026-04-19 20:56 | 39.83945 | 155.52079 | 35018 ft | 567 kts | 64° |
| 2026-04-19 20:57 | 39.86668 | 155.61714 | 35044 ft | 567 kts | 64° |
| 2026-04-19 20:57 | 39.89367 | 155.71299 | 35020 ft | 568 kts | 64° |
| 2026-04-19 20:58 | 39.92077 | 155.80959 | 35014 ft | 568 kts | 64° |
| 2026-04-19 20:58 | 39.94782 | 155.90641 | 35012 ft | 569 kts | 64° |
| 2026-04-19 20:59 | 39.97489 | 156.00365 | 35016 ft | 570 kts | 64° |
| 2026-04-19 20:59 | 40.00191 | 156.10108 | 35012 ft | 571 kts | 64° |
| 2026-04-19 21:00 | 40.02867 | 156.19796 | 35011 ft | 572 kts | 64° |
| 2026-04-19 21:00 | 40.05559 | 156.29577 | 35006 ft | 573 kts | 64° |
| 2026-04-19 21:01 | 40.08248 | 156.39384 | 35009 ft | 573 kts | 64° |
| 2026-04-19 21:01 | 40.10931 | 156.49209 | 35012 ft | 574 kts | 64° |
| 2026-04-19 21:02 | 40.13604 | 156.59037 | 35017 ft | 574 kts | 65° |
| 2026-04-19 21:02 | 40.16271 | 156.68881 | 35005 ft | 575 kts | 65° |
| 2026-04-19 21:03 | 40.18915 | 156.78674 | 34995 ft | 575 kts | 65° |
| 2026-04-19 21:03 | 40.21571 | 156.88554 | 34995 ft | 575 kts | 65° |
| 2026-04-19 21:04 | 40.24219 | 156.98444 | 35001 ft | 575 kts | 65° |
| 2026-04-19 21:04 | 40.26857 | 157.08335 | 34994 ft | 575 kts | 65° |
| 2026-04-19 21:05 | 40.29488 | 157.18236 | 34988 ft | 575 kts | 65° |
| 2026-04-19 21:05 | 40.32109 | 157.28144 | 35042 ft | 576 kts | 65° |
| 2026-04-19 21:06 | 40.34728 | 157.38078 | 34994 ft | 576 kts | 65° |
| 2026-04-19 21:06 | 40.37332 | 157.48001 | 34981 ft | 576 kts | 65° |
| 2026-04-19 21:07 | 40.39930 | 157.57939 | 34990 ft | 575 kts | 65° |
| 2026-04-19 21:07 | 40.42515 | 157.67866 | 34969 ft | 574 kts | 65° |
| 2026-04-19 21:08 | 40.45075 | 157.77736 | 34974 ft | 574 kts | 65° |
| 2026-04-19 21:08 | 40.47640 | 157.87667 | 34988 ft | 574 kts | 65° |
| 2026-04-19 21:09 | 40.50198 | 157.97611 | 34973 ft | 575 kts | 66° |
| 2026-04-19 21:09 | 40.52751 | 158.07575 | 34964 ft | 575 kts | 66° |
| 2026-04-19 21:10 | 40.55300 | 158.17566 | 34963 ft | 576 kts | 66° |
| 2026-04-19 21:10 | 40.57840 | 158.27563 | 34969 ft | 577 kts | 66° |
| 2026-04-19 21:11 | 40.60374 | 158.37577 | 34958 ft | 577 kts | 66° |
| 2026-04-19 21:11 | 40.62886 | 158.47549 | 34956 ft | 577 kts | 66° |
| 2026-04-19 21:12 | 40.65406 | 158.57595 | 34953 ft | 577 kts | 66° |
| 2026-04-19 21:12 | 40.67912 | 158.67626 | 34942 ft | 577 kts | 66° |
| 2026-04-19 21:13 | 40.70415 | 158.77685 | 34941 ft | 577 kts | 66° |
| 2026-04-19 21:13 | 40.72906 | 158.87741 | 34946 ft | 577 kts | 66° |
| 2026-04-19 21:14 | 40.75389 | 158.97806 | 34940 ft | 577 kts | 66° |
| 2026-04-19 21:14 | 40.77861 | 159.07869 | 34931 ft | 577 kts | 67° |
| 2026-04-19 21:15 | 40.80330 | 159.17962 | 34923 ft | 577 kts | 67° |
| 2026-04-19 21:15 | 40.82787 | 159.28053 | 34933 ft | 577 kts | 67° |
| 2026-04-19 21:16 | 40.85223 | 159.38100 | 34926 ft | 578 kts | 67° |
| 2026-04-19 21:16 | 40.87664 | 159.48210 | 34903 ft | 577 kts | 67° |
| 2026-04-19 21:17 | 40.90098 | 159.58337 | 34909 ft | 577 kts | 67° |
| 2026-04-19 21:17 | 40.92521 | 159.68459 | 34905 ft | 577 kts | 67° |
| 2026-04-19 21:18 | 40.94933 | 159.78583 | 34904 ft | 577 kts | 67° |
| 2026-04-19 21:18 | 40.97338 | 159.88723 | 34925 ft | 577 kts | 68° |
| 2026-04-19 21:19 | 40.99733 | 159.98857 | 34895 ft | 577 kts | 68° |
| 2026-04-19 21:19 | 41.02188 | 160.08976 | 34883 ft | 576 kts | 66° |
| 2026-04-19 21:20 | 41.04705 | 160.18968 | 34882 ft | 575 kts | 66° |
| 2026-04-19 21:20 | 41.07236 | 160.29041 | 34884 ft | 576 kts | 66° |
| 2026-04-19 21:21 | 41.09738 | 160.39129 | 34873 ft | 576 kts | 66° |
| 2026-04-19 21:21 | 41.12224 | 160.49243 | 34866 ft | 576 kts | 67° |
| 2026-04-19 21:22 | 41.14696 | 160.59342 | 34876 ft | 575 kts | 67° |
| 2026-04-19 21:22 | 41.17145 | 160.69387 | 34876 ft | 575 kts | 67° |
| 2026-04-19 21:23 | 41.19606 | 160.79520 | 34856 ft | 576 kts | 67° |
| 2026-04-19 21:23 | 41.22053 | 160.89638 | 34882 ft | 575 kts | 67° |
| 2026-04-19 21:24 | 41.24481 | 160.99721 | 34860 ft | 575 kts | 67° |
| 2026-04-19 21:24 | 41.26912 | 161.09862 | 34843 ft | 574 kts | 67° |
| 2026-04-19 21:25 | 41.29325 | 161.19972 | 34838 ft | 574 kts | 67° |
| 2026-04-19 21:25 | 41.31730 | 161.30094 | 34838 ft | 573 kts | 68° |
| 2026-04-19 21:26 | 41.34122 | 161.40205 | 34830 ft | 573 kts | 68° |
| 2026-04-19 21:26 | 41.36498 | 161.50293 | 34828 ft | 572 kts | 68° |
| 2026-04-19 21:27 | 41.38874 | 161.60421 | 34835 ft | 572 kts | 68° |
| 2026-04-19 21:27 | 41.41240 | 161.70556 | 34821 ft | 572 kts | 68° |
| 2026-04-19 21:28 | 41.43589 | 161.80667 | 34824 ft | 572 kts | 68° |
| 2026-04-19 21:28 | 41.45925 | 161.90766 | 34819 ft | 572 kts | 68° |
| 2026-04-19 21:29 | 41.48258 | 162.00894 | 34823 ft | 572 kts | 68° |
| 2026-04-19 21:29 | 41.50588 | 162.11055 | 34810 ft | 572 kts | 68° |
| 2026-04-19 21:30 | 41.52908 | 162.21225 | 34804 ft | 572 kts | 68° |
| 2026-04-19 21:30 | 41.55216 | 162.31382 | 34816 ft | 572 kts | 69° |
| 2026-04-19 21:31 | 41.57516 | 162.41553 | 34795 ft | 572 kts | 69° |
| 2026-04-19 21:31 | 41.59805 | 162.51726 | 34807 ft | 572 kts | 69° |
| 2026-04-19 21:32 | 41.62073 | 162.61845 | 34804 ft | 571 kts | 69° |
| 2026-04-19 21:32 | 41.64345 | 162.72031 | 34796 ft | 571 kts | 69° |
| 2026-04-19 21:33 | 41.66605 | 162.82215 | 34781 ft | 570 kts | 70° |
| 2026-04-19 21:33 | 41.68850 | 162.92380 | 34782 ft | 569 kts | 70° |
| 2026-04-19 21:34 | 41.71087 | 163.02551 | 34786 ft | 569 kts | 70° |
| 2026-04-19 21:34 | 41.73313 | 163.12721 | 34775 ft | 568 kts | 70° |
| 2026-04-19 21:35 | 41.75512 | 163.22812 | 34771 ft | 568 kts | 70° |
| 2026-04-19 21:35 | 41.77717 | 163.32983 | 34774 ft | 568 kts | 70° |
| 2026-04-19 21:36 | 41.79912 | 163.43153 | 34768 ft | 568 kts | 71° |
| 2026-04-19 21:36 | 41.82087 | 163.53281 | 34766 ft | 568 kts | 71° |
| 2026-04-19 21:37 | 41.84263 | 163.63465 | 34764 ft | 568 kts | 71° |
| 2026-04-19 21:37 | 41.86433 | 163.73663 | 34785 ft | 569 kts | 71° |
| 2026-04-19 21:38 | 41.88597 | 163.83885 | 34751 ft | 570 kts | 71° |
| 2026-04-19 21:38 | 41.90749 | 163.94105 | 34756 ft | 569 kts | 71° |
| 2026-04-19 21:39 | 41.92894 | 164.04339 | 34753 ft | 568 kts | 72° |
| 2026-04-19 21:39 | 41.95022 | 164.14543 | 34751 ft | 567 kts | 72° |
| 2026-04-19 21:40 | 41.98194 | 164.29842 | 34749 ft | 566 kts | 72° |
| 2026-04-19 21:41 | 42.00282 | 164.39975 | 34753 ft | 566 kts | 72° |
| 2026-04-19 21:41 | 42.02389 | 164.50252 | 34744 ft | 566 kts | 72° |
| 2026-04-19 21:42 | 42.04465 | 164.60432 | 34748 ft | 567 kts | 72° |
| 2026-04-19 21:42 | 42.06542 | 164.70661 | 34749 ft | 567 kts | 72° |
| 2026-04-19 21:43 | 42.08611 | 164.80905 | 34749 ft | 567 kts | 73° |
| 2026-04-19 21:43 | 42.10674 | 164.91176 | 34745 ft | 568 kts | 73° |
| 2026-04-19 21:44 | 42.12381 | 164.99710 | 34741 ft | 568 kts | 73° |
| 2026-04-19 21:44 | 42.14424 | 165.09976 | 34741 ft | 568 kts | 73° |
| 2026-04-19 21:45 | 42.16466 | 165.20286 | 34741 ft | 568 kts | 73° |
| 2026-04-19 21:45 | 42.18484 | 165.30525 | 34742 ft | 568 kts | 73° |
| 2026-04-19 21:46 | 42.20503 | 165.40831 | 34743 ft | 568 kts | 73° |
| 2026-04-19 21:46 | 42.22514 | 165.51145 | 34740 ft | 568 kts | 73° |
| 2026-04-19 21:47 | 42.24519 | 165.61478 | 34738 ft | 568 kts | 73° |
| 2026-04-19 21:47 | 42.26511 | 165.71804 | 34738 ft | 568 kts | 74° |
| 2026-04-19 21:48 | 42.28498 | 165.82157 | 34736 ft | 568 kts | 74° |
| 2026-04-19 21:48 | 42.30461 | 165.92437 | 34735 ft | 568 kts | 74° |
| 2026-04-19 21:49 | 42.32425 | 166.02782 | 34736 ft | 568 kts | 74° |
| 2026-04-19 21:49 | 42.34382 | 166.13146 | 34730 ft | 568 kts | 74° |
| 2026-04-19 21:50 | 42.36329 | 166.23510 | 34733 ft | 568 kts | 75° |
| 2026-04-19 21:50 | 42.38255 | 166.33816 | 34732 ft | 568 kts | 75° |
| 2026-04-19 21:51 | 42.40184 | 166.44196 | 34727 ft | 568 kts | 75° |
| 2026-04-19 21:51 | 42.42105 | 166.54594 | 34719 ft | 568 kts | 75° |
| 2026-04-19 21:52 | 42.44016 | 166.64988 | 34731 ft | 569 kts | 75° |
| 2026-04-19 21:52 | 42.45907 | 166.75335 | 34732 ft | 569 kts | 75° |
| 2026-04-19 21:53 | 42.47799 | 166.85745 | 34729 ft | 569 kts | 75° |
| 2026-04-19 21:53 | 42.49683 | 166.96166 | 34740 ft | 569 kts | 76° |
| 2026-04-19 21:54 | 42.51557 | 167.06593 | 34731 ft | 570 kts | 76° |
| 2026-04-19 21:54 | 42.53424 | 167.17041 | 34734 ft | 570 kts | 76° |
| 2026-04-19 21:55 | 42.55273 | 167.27442 | 34725 ft | 570 kts | 76° |
| 2026-04-19 21:55 | 42.57118 | 167.37886 | 34733 ft | 569 kts | 76° |
| 2026-04-19 21:56 | 42.58957 | 167.48349 | 34732 ft | 570 kts | 76° |
| 2026-04-19 21:56 | 42.60785 | 167.58816 | 34733 ft | 570 kts | 76° |
| 2026-04-19 21:57 | 42.62605 | 167.69297 | 34747 ft | 570 kts | 76° |
| 2026-04-19 21:57 | 42.64415 | 167.79779 | 34728 ft | 570 kts | 77° |
| 2026-04-19 21:58 | 42.66204 | 167.90206 | 34747 ft | 570 kts | 77° |
| 2026-04-19 21:58 | 42.68001 | 168.00733 | 34730 ft | 573 kts | 77° |
| 2026-04-19 21:59 | 42.69791 | 168.11287 | 34718 ft | 572 kts | 77° |
| 2026-04-19 21:59 | 42.71567 | 168.21820 | 34722 ft | 570 kts | 77° |
| 2026-04-19 22:00 | 42.73328 | 168.32330 | 34717 ft | 571 kts | 77° |
| 2026-04-19 22:00 | 42.75077 | 168.42830 | 34718 ft | 571 kts | 77° |
| 2026-04-19 22:01 | 42.76823 | 168.53370 | 34736 ft | 570 kts | 77° |
| 2026-04-19 22:01 | 42.78557 | 168.63910 | 34711 ft | 571 kts | 77° |
| 2026-04-19 22:02 | 42.80283 | 168.74465 | 34715 ft | 570 kts | 78° |
| 2026-04-19 22:02 | 42.81988 | 168.84953 | 34714 ft | 571 kts | 78° |
| 2026-04-19 22:03 | 42.83696 | 168.95524 | 34726 ft | 571 kts | 78° |
| 2026-04-19 22:03 | 42.85393 | 169.06098 | 34728 ft | 572 kts | 78° |
| 2026-04-19 22:04 | 42.87085 | 169.16700 | 34729 ft | 573 kts | 78° |
| 2026-04-19 22:04 | 42.88769 | 169.27324 | 34738 ft | 573 kts | 78° |
| 2026-04-19 22:05 | 42.90445 | 169.37970 | 34718 ft | 574 kts | 78° |
| 2026-04-19 22:05 | 42.92110 | 169.48608 | 34727 ft | 572 kts | 78° |
| 2026-04-19 22:06 | 42.93753 | 169.59177 | 34742 ft | 572 kts | 78° |
| 2026-04-19 22:06 | 42.95394 | 169.69797 | 34745 ft | 572 kts | 78° |
| 2026-04-19 22:07 | 42.97024 | 169.80418 | 34752 ft | 572 kts | 78° |
| 2026-04-19 22:07 | 42.98644 | 169.91047 | 34771 ft | 572 kts | 79° |
| 2026-04-19 22:08 | 43.00261 | 170.01719 | 34748 ft | 573 kts | 79° |
| 2026-04-19 22:08 | 43.01823 | 170.12392 | 34757 ft | 573 kts | 79° |
| 2026-04-19 22:09 | 43.03344 | 170.23031 | 34763 ft | 573 kts | 80° |
| 2026-04-19 22:09 | 43.04866 | 170.33722 | 34770 ft | 572 kts | 80° |
| 2026-04-19 22:10 | 43.06383 | 170.44409 | 34769 ft | 572 kts | 80° |
| 2026-04-19 22:10 | 43.07891 | 170.55087 | 34765 ft | 572 kts | 80° |
| 2026-04-19 22:11 | 43.09389 | 170.65768 | 34784 ft | 571 kts | 80° |
| 2026-04-19 22:11 | 43.10875 | 170.76445 | 34798 ft | 571 kts | 80° |
| 2026-04-19 22:12 | 43.12343 | 170.87069 | 34815 ft | 572 kts | 80° |
| 2026-04-19 22:12 | 43.13812 | 170.97775 | 34797 ft | 572 kts | 80° |
| 2026-04-19 22:13 | 43.15276 | 171.08527 | 34808 ft | 572 kts | 80° |
| 2026-04-19 22:13 | 43.16716 | 171.19182 | 34809 ft | 572 kts | 80° |
| 2026-04-19 22:14 | 43.18157 | 171.29919 | 34792 ft | 572 kts | 80° |
| 2026-04-19 22:14 | 43.19586 | 171.40657 | 34823 ft | 572 kts | 80° |
| 2026-04-19 22:15 | 43.21005 | 171.51392 | 34823 ft | 573 kts | 80° |
| 2026-04-19 22:15 | 43.22416 | 171.62140 | 34823 ft | 573 kts | 81° |
| 2026-04-19 22:16 | 43.23816 | 171.72896 | 34831 ft | 573 kts | 81° |
| 2026-04-19 22:16 | 43.25198 | 171.83595 | 34842 ft | 572 kts | 81° |
| 2026-04-19 22:17 | 43.26577 | 171.94349 | 34837 ft | 572 kts | 81° |
| 2026-04-19 22:17 | 43.27944 | 172.05095 | 34818 ft | 571 kts | 81° |
| 2026-04-19 22:18 | 43.29299 | 172.15831 | 34852 ft | 570 kts | 81° |
| 2026-04-19 22:18 | 43.30637 | 172.26516 | 34864 ft | 570 kts | 81° |
| 2026-04-19 22:19 | 43.31972 | 172.37261 | 34867 ft | 570 kts | 81° |
| 2026-04-19 22:19 | 43.33298 | 172.48019 | 34864 ft | 570 kts | 81° |
| 2026-04-19 22:20 | 43.34613 | 172.58777 | 34869 ft | 570 kts | 81° |
| 2026-04-19 22:20 | 43.35908 | 172.69456 | 34870 ft | 570 kts | 81° |
| 2026-04-19 22:21 | 43.37202 | 172.80216 | 34874 ft | 570 kts | 81° |
| 2026-04-19 22:21 | 43.38487 | 172.90987 | 34883 ft | 570 kts | 81° |
| 2026-04-19 22:22 | 43.39763 | 173.01773 | 34890 ft | 571 kts | 81° |
| 2026-04-19 22:22 | 43.41019 | 173.12477 | 34891 ft | 570 kts | 81° |
| 2026-04-19 22:23 | 43.42273 | 173.23255 | 34891 ft | 570 kts | 81° |
| 2026-04-19 22:23 | 43.43517 | 173.34041 | 34904 ft | 570 kts | 81° |
| 2026-04-19 22:24 | 43.44751 | 173.44829 | 34924 ft | 571 kts | 82° |
| 2026-04-19 22:24 | 43.45974 | 173.55620 | 34914 ft | 570 kts | 82° |
| 2026-04-19 22:25 | 43.47185 | 173.66388 | 34922 ft | 568 kts | 82° |
| 2026-04-19 22:25 | 43.48374 | 173.77060 | 34930 ft | 566 kts | 82° |
| 2026-04-19 22:26 | 43.49556 | 173.87762 | 34931 ft | 565 kts | 82° |
| 2026-04-19 22:26 | 43.50726 | 173.98455 | 34934 ft | 564 kts | 82° |
| 2026-04-19 22:27 | 43.51883 | 174.09119 | 34947 ft | 563 kts | 82° |
| 2026-04-19 22:27 | 43.53032 | 174.19805 | 34944 ft | 562 kts | 82° |
| 2026-04-19 22:28 | 43.54168 | 174.30471 | 34925 ft | 562 kts | 82° |
| 2026-04-19 22:28 | 43.55287 | 174.41067 | 34967 ft | 562 kts | 82° |
| 2026-04-19 22:29 | 43.56403 | 174.51734 | 34970 ft | 562 kts | 82° |
| 2026-04-19 22:29 | 43.57510 | 174.62412 | 34970 ft | 563 kts | 82° |
| 2026-04-19 22:30 | 43.58610 | 174.73132 | 34985 ft | 562 kts | 82° |
| 2026-04-19 22:30 | 43.59696 | 174.83806 | 34994 ft | 562 kts | 82° |
| 2026-04-19 22:31 | 43.60765 | 174.94420 | 34995 ft | 562 kts | 82° |
| 2026-04-19 22:31 | 43.61831 | 175.05100 | 34979 ft | 561 kts | 82° |
| 2026-04-19 22:32 | 43.62884 | 175.15761 | 35007 ft | 560 kts | 82° |
| 2026-04-19 22:32 | 43.63926 | 175.26405 | 35009 ft | 559 kts | 82° |
| 2026-04-19 22:33 | 43.64957 | 175.37047 | 35022 ft | 559 kts | 82° |
| 2026-04-19 22:33 | 43.65977 | 175.47684 | 35028 ft | 558 kts | 82° |
| 2026-04-19 22:34 | 43.66986 | 175.58310 | 35034 ft | 558 kts | 82° |
| 2026-04-19 22:34 | 43.67818 | 175.67152 | 35028 ft | 558 kts | 82° |
| 2026-04-19 22:35 | 43.68809 | 175.77776 | 35035 ft | 557 kts | 82° |
| 2026-04-19 22:35 | 43.69788 | 175.88390 | 35048 ft | 556 kts | 82° |
| 2026-04-19 22:36 | 43.70912 | 176.00716 | 35039 ft | 556 kts | 82° |
| 2026-04-19 22:36 | 43.71708 | 176.09531 | 35053 ft | 555 kts | 83° |
| 2026-04-19 22:37 | 43.72656 | 176.20130 | 35052 ft | 555 kts | 82° |
| 2026-04-19 22:37 | 43.73602 | 176.30829 | 35072 ft | 566 kts | 82° |
| 2026-04-19 22:38 | 43.74552 | 176.41683 | 35061 ft | 569 kts | 83° |
| 2026-04-19 22:38 | 43.75493 | 176.52558 | 35058 ft | 569 kts | 83° |
| 2026-04-19 22:39 | 43.76424 | 176.63441 | 35063 ft | 568 kts | 83° |
| 2026-04-19 22:39 | 43.77335 | 176.74219 | 35062 ft | 566 kts | 83° |
| 2026-04-19 22:40 | 43.78239 | 176.85031 | 35070 ft | 565 kts | 83° |
| 2026-04-19 22:40 | 43.79131 | 176.95827 | 35085 ft | 564 kts | 83° |
| 2026-04-19 22:41 | 43.80010 | 177.06594 | 35070 ft | 562 kts | 83° |
| 2026-04-19 22:41 | 43.80877 | 177.17342 | 35083 ft | 561 kts | 83° |
| 2026-04-19 22:42 | 43.81733 | 177.28069 | 35092 ft | 560 kts | 83° |
| 2026-04-19 22:42 | 43.82576 | 177.38776 | 35098 ft | 559 kts | 83° |
| 2026-04-19 22:43 | 43.83405 | 177.49424 | 35090 ft | 558 kts | 83° |
| 2026-04-19 22:43 | 43.84227 | 177.60117 | 35100 ft | 558 kts | 83° |
| 2026-04-19 22:44 | 43.85040 | 177.70821 | 35105 ft | 558 kts | 83° |
| 2026-04-19 22:44 | 43.85840 | 177.81493 | 35111 ft | 557 kts | 83° |
| 2026-04-19 22:45 | 43.86631 | 177.92183 | 35118 ft | 556 kts | 83° |
| 2026-04-19 22:45 | 43.87410 | 178.02846 | 35128 ft | 556 kts | 83° |
| 2026-04-19 22:46 | 43.88174 | 178.13433 | 35121 ft | 555 kts | 83° |
| 2026-04-19 22:46 | 43.88931 | 178.24071 | 35130 ft | 554 kts | 84° |
| 2026-04-19 22:47 | 43.89679 | 178.34713 | 35134 ft | 553 kts | 84° |
| 2026-04-19 22:47 | 43.90414 | 178.45324 | 35135 ft | 552 kts | 84° |
| 2026-04-19 22:48 | 43.91138 | 178.55915 | 35138 ft | 551 kts | 84° |
| 2026-04-19 22:48 | 43.91850 | 178.66486 | 35145 ft | 550 kts | 84° |
| 2026-04-19 22:49 | 43.92553 | 178.77047 | 35146 ft | 549 kts | 84° |
| 2026-04-19 22:49 | 43.93244 | 178.87605 | 35137 ft | 548 kts | 84° |
| 2026-04-19 22:50 | 43.93920 | 178.98070 | 35155 ft | 547 kts | 84° |
| 2026-04-19 22:50 | 43.94591 | 179.08603 | 35160 ft | 546 kts | 84° |
| 2026-04-19 22:51 | 43.95252 | 179.19123 | 35163 ft | 546 kts | 84° |
| 2026-04-19 22:51 | 43.96217 | 179.34803 | 35168 ft | 545 kts | 84° |
| 2026-04-19 22:52 | 43.96855 | 179.45351 | 35163 ft | 545 kts | 84° |
| 2026-04-19 22:52 | 43.97475 | 179.55771 | 35172 ft | 545 kts | 84° |
| 2026-04-19 22:53 | 43.98089 | 179.66258 | 35174 ft | 544 kts | 84° |
| 2026-04-19 22:53 | 43.98692 | 179.76720 | 35179 ft | 543 kts | 84° |
| 2026-04-19 22:54 | 43.99286 | 179.87172 | 35180 ft | 542 kts | 84° |
| 2026-04-19 22:54 | 44.00002 | 179.97579 | 35177 ft | 540 kts | 78° |
| 2026-04-19 22:55 | 44.01778 | -179.92355 | 35177 ft | 534 kts | 67° |
| 2026-04-19 22:55 | 44.04267 | -179.82644 | 35190 ft | 532 kts | 67° |
| 2026-04-19 22:56 | 44.06750 | -179.72947 | 35187 ft | 532 kts | 67° |
| 2026-04-19 22:56 | 44.09176 | -179.63276 | 35184 ft | 532 kts | 68° |
| 2026-04-19 22:57 | 44.11584 | -179.53534 | 35186 ft | 532 kts | 68° |
| 2026-04-19 22:57 | 44.13986 | -179.43762 | 35186 ft | 532 kts | 68° |
| 2026-04-19 22:58 | 44.16363 | -179.34064 | 35189 ft | 533 kts | 68° |
| 2026-04-19 22:58 | 44.18752 | -179.24280 | 35188 ft | 533 kts | 68° |
| 2026-04-19 22:59 | 44.21132 | -179.14493 | 35190 ft | 532 kts | 68° |
| 2026-04-19 22:59 | 44.23495 | -179.04728 | 35201 ft | 531 kts | 69° |
| 2026-04-19 23:00 | 44.25851 | -178.94955 | 35193 ft | 530 kts | 69° |
| 2026-04-19 23:00 | 44.28176 | -178.85268 | 35187 ft | 529 kts | 69° |
| 2026-04-19 23:01 | 44.30501 | -178.75540 | 35198 ft | 527 kts | 69° |
| 2026-04-19 23:01 | 44.32809 | -178.65838 | 35191 ft | 526 kts | 69° |
| 2026-04-19 23:02 | 44.35104 | -178.56150 | 35199 ft | 524 kts | 69° |
| 2026-04-19 23:02 | 44.37385 | -178.46480 | 35191 ft | 524 kts | 69° |
| 2026-04-19 23:03 | 44.39658 | -178.36802 | 35203 ft | 522 kts | 69° |
| 2026-04-19 23:03 | 44.41902 | -178.27207 | 35219 ft | 522 kts | 70° |
| 2026-04-19 23:04 | 44.44150 | -178.17554 | 35208 ft | 522 kts | 70° |
| 2026-04-19 23:04 | 44.46389 | -178.07893 | 35200 ft | 522 kts | 70° |
| 2026-04-19 23:05 | 44.48619 | -177.98227 | 35211 ft | 521 kts | 70° |
| 2026-04-19 23:05 | 44.50841 | -177.88556 | 35208 ft | 521 kts | 70° |
| 2026-04-19 23:06 | 44.53044 | -177.78928 | 35210 ft | 521 kts | 70° |
| 2026-04-19 23:06 | 44.55248 | -177.69248 | 35207 ft | 521 kts | 70° |
| 2026-04-19 23:07 | 44.57446 | -177.59551 | 35212 ft | 521 kts | 70° |
| 2026-04-19 23:07 | 44.59634 | -177.49858 | 35231 ft | 521 kts | 70° |
| 2026-04-19 23:08 | 44.61818 | -177.40136 | 35221 ft | 522 kts | 70° |
| 2026-04-19 23:08 | 44.63980 | -177.30468 | 35224 ft | 522 kts | 70° |
| 2026-04-19 23:09 | 44.66145 | -177.20742 | 35221 ft | 522 kts | 70° |
| 2026-04-19 23:09 | 44.68306 | -177.10992 | 35222 ft | 521 kts | 70° |
| 2026-04-19 23:10 | 44.70453 | -177.01262 | 35223 ft | 521 kts | 70° |
| 2026-04-19 23:10 | 44.72592 | -176.91519 | 35225 ft | 521 kts | 70° |
| 2026-04-19 23:11 | 44.74708 | -176.81838 | 35223 ft | 520 kts | 70° |
| 2026-04-19 23:11 | 44.76821 | -176.72130 | 35242 ft | 519 kts | 71° |
| 2026-04-19 23:12 | 44.78926 | -176.62410 | 35231 ft | 519 kts | 71° |
| 2026-04-19 23:12 | 44.81021 | -176.52691 | 35231 ft | 518 kts | 71° |
| 2026-04-19 23:13 | 44.83106 | -176.42972 | 35230 ft | 517 kts | 71° |
| 2026-04-19 23:13 | 44.85180 | -176.33259 | 35234 ft | 517 kts | 71° |
| 2026-04-19 23:14 | 44.87233 | -176.23603 | 35235 ft | 516 kts | 71° |
| 2026-04-19 23:14 | 44.89286 | -176.13904 | 35236 ft | 516 kts | 71° |
| 2026-04-19 23:15 | 44.91325 | -176.04218 | 35234 ft | 515 kts | 71° |
| 2026-04-19 23:15 | 44.93355 | -175.94530 | 35254 ft | 514 kts | 72° |
| 2026-04-19 23:16 | 44.95360 | -175.84919 | 35245 ft | 514 kts | 72° |
| 2026-04-19 23:16 | 44.97370 | -175.75238 | 35239 ft | 514 kts | 72° |
| 2026-04-19 23:17 | 44.99373 | -175.65542 | 35242 ft | 514 kts | 72° |
| 2026-04-19 23:17 | 45.01367 | -175.55849 | 35245 ft | 514 kts | 72° |
| 2026-04-19 23:18 | 45.03355 | -175.46132 | 35245 ft | 514 kts | 72° |
| 2026-04-19 23:18 | 45.05334 | -175.36415 | 35250 ft | 514 kts | 72° |
| 2026-04-19 23:19 | 45.07302 | -175.26707 | 35247 ft | 513 kts | 72° |
| 2026-04-19 23:19 | 45.09247 | -175.17060 | 35248 ft | 512 kts | 73° |
| 2026-04-19 23:20 | 45.11191 | -175.07370 | 35255 ft | 511 kts | 73° |
| 2026-04-19 23:20 | 45.13126 | -174.97686 | 35239 ft | 511 kts | 73° |
| 2026-04-19 23:21 | 45.15047 | -174.88016 | 35252 ft | 509 kts | 73° |
| 2026-04-19 23:21 | 45.16960 | -174.78343 | 35250 ft | 509 kts | 73° |
| 2026-04-19 23:22 | 45.18861 | -174.68681 | 35257 ft | 509 kts | 73° |
| 2026-04-19 23:22 | 45.20754 | -174.59016 | 35247 ft | 509 kts | 74° |
| 2026-04-19 23:23 | 45.22639 | -174.49345 | 35260 ft | 509 kts | 74° |
| 2026-04-19 23:23 | 45.24503 | -174.39729 | 35265 ft | 509 kts | 74° |
| 2026-04-19 23:24 | 45.26370 | -174.30051 | 35268 ft | 510 kts | 74° |
| 2026-04-19 23:24 | 45.28235 | -174.20331 | 35261 ft | 510 kts | 74° |
| 2026-04-19 23:25 | 45.29784 | -174.12226 | 35266 ft | 511 kts | 75° |
| 2026-04-19 23:25 | 45.31639 | -174.02465 | 35266 ft | 511 kts | 75° |
| 2026-04-19 23:26 | 45.33489 | -173.92688 | 35269 ft | 512 kts | 75° |
| 2026-04-19 23:26 | 45.35329 | -173.82910 | 35270 ft | 512 kts | 75° |
| 2026-04-19 23:27 | 45.37163 | -173.73111 | 35263 ft | 512 kts | 76° |
| 2026-04-19 23:27 | 45.38976 | -173.63377 | 35274 ft | 513 kts | 76° |
| 2026-04-19 23:28 | 45.40795 | -173.53562 | 35279 ft | 513 kts | 76° |
| 2026-04-19 23:28 | 45.42609 | -173.43715 | 35279 ft | 514 kts | 76° |
| 2026-04-19 23:29 | 45.44418 | -173.33847 | 35258 ft | 514 kts | 76° |
| 2026-04-19 23:29 | 45.46215 | -173.23991 | 35276 ft | 514 kts | 76° |
| 2026-04-19 23:30 | 45.47995 | -173.14177 | 35280 ft | 515 kts | 77° |
| 2026-04-19 23:30 | 45.49777 | -173.04294 | 35275 ft | 515 kts | 77° |
| 2026-04-19 23:31 | 45.51552 | -172.94405 | 35270 ft | 515 kts | 77° |
| 2026-04-19 23:31 | 45.53321 | -172.84490 | 35281 ft | 515 kts | 77° |
| 2026-04-19 23:32 | 45.55082 | -172.74566 | 35292 ft | 516 kts | 77° |
| 2026-04-19 23:32 | 45.56822 | -172.64703 | 35283 ft | 516 kts | 77° |
| 2026-04-19 23:33 | 45.58573 | -172.54731 | 35271 ft | 516 kts | 78° |
| 2026-04-19 23:33 | 45.60309 | -172.44781 | 35285 ft | 516 kts | 78° |
| 2026-04-19 23:34 | 45.62025 | -172.34896 | 35283 ft | 515 kts | 78° |
| 2026-04-19 23:34 | 45.63741 | -172.24953 | 35282 ft | 515 kts | 78° |
| 2026-04-19 23:35 | 45.65447 | -172.15009 | 35281 ft | 515 kts | 78° |
| 2026-04-19 23:35 | 45.67143 | -172.05071 | 35286 ft | 514 kts | 78° |
| 2026-04-19 23:36 | 45.68830 | -171.95128 | 35301 ft | 514 kts | 78° |
| 2026-04-19 23:36 | 45.70508 | -171.85182 | 35287 ft | 514 kts | 78° |
| 2026-04-19 23:37 | 45.72165 | -171.75304 | 35282 ft | 514 kts | 79° |
| 2026-04-19 23:37 | 45.73826 | -171.65344 | 35289 ft | 514 kts | 79° |
| 2026-04-19 23:38 | 45.75475 | -171.55399 | 35288 ft | 514 kts | 79° |
| 2026-04-19 23:38 | 45.77119 | -171.45424 | 35294 ft | 514 kts | 79° |
| 2026-04-19 23:39 | 45.78755 | -171.35442 | 35291 ft | 514 kts | 79° |
| 2026-04-19 23:39 | 45.80380 | -171.25466 | 35287 ft | 514 kts | 79° |
| 2026-04-19 23:40 | 45.81995 | -171.15494 | 35295 ft | 513 kts | 79° |
| 2026-04-19 23:40 | 45.83594 | -171.05563 | 35301 ft | 513 kts | 79° |
| 2026-04-19 23:41 | 45.85191 | -170.95578 | 35295 ft | 514 kts | 79° |
| 2026-04-19 23:41 | 45.86780 | -170.85590 | 35286 ft | 513 kts | 80° |
| 2026-04-19 23:42 | 45.88359 | -170.75606 | 35298 ft | 513 kts | 80° |
| 2026-04-19 23:42 | 45.89928 | -170.65619 | 35298 ft | 513 kts | 80° |
| 2026-04-19 23:43 | 45.91488 | -170.55630 | 35299 ft | 513 kts | 80° |
| 2026-04-19 23:43 | 45.93040 | -170.45627 | 35283 ft | 512 kts | 81° |
| 2026-04-19 23:44 | 45.94582 | -170.35637 | 35300 ft | 512 kts | 81° |
| 2026-04-19 23:44 | 45.96105 | -170.25698 | 35309 ft | 512 kts | 81° |
| 2026-04-19 23:45 | 45.97629 | -170.15691 | 35298 ft | 513 kts | 81° |
| 2026-04-19 23:45 | 45.99146 | -170.05674 | 35272 ft | 513 kts | 81° |
| 2026-04-19 23:46 | 46.00648 | -169.95655 | 35295 ft | 512 kts | 82° |
| 2026-04-19 23:46 | 46.02105 | -169.85619 | 35305 ft | 513 kts | 82° |
| 2026-04-19 23:47 | 46.03546 | -169.75570 | 35308 ft | 513 kts | 82° |
| 2026-04-19 23:47 | 46.04984 | -169.65502 | 35306 ft | 513 kts | 82° |
| 2026-04-19 23:48 | 46.06416 | -169.55439 | 35297 ft | 513 kts | 83° |
| 2026-04-19 23:48 | 46.07830 | -169.45438 | 35311 ft | 513 kts | 83° |
| 2026-04-19 23:49 | 46.09248 | -169.35348 | 35315 ft | 514 kts | 83° |
| 2026-04-19 23:49 | 46.10657 | -169.25244 | 35305 ft | 514 kts | 83° |
| 2026-04-19 23:50 | 46.12057 | -169.15141 | 35297 ft | 514 kts | 83° |
| 2026-04-19 23:50 | 46.13440 | -169.05087 | 35305 ft | 514 kts | 84° |
| 2026-04-19 23:51 | 46.14823 | -168.94964 | 35313 ft | 515 kts | 84° |
| 2026-04-19 23:51 | 46.16199 | -168.84827 | 35312 ft | 515 kts | 84° |
| 2026-04-19 23:52 | 46.17568 | -168.74667 | 35294 ft | 515 kts | 84° |
| 2026-04-19 23:52 | 46.18928 | -168.64503 | 35307 ft | 515 kts | 84° |
| 2026-04-19 23:53 | 46.20280 | -168.54327 | 35328 ft | 516 kts | 84° |
| 2026-04-19 23:53 | 46.21621 | -168.44151 | 35321 ft | 517 kts | 85° |
| 2026-04-19 23:54 | 46.22952 | -168.33990 | 35283 ft | 517 kts | 85° |
| 2026-04-19 23:54 | 46.24281 | -168.23768 | 35311 ft | 517 kts | 85° |
| 2026-04-19 23:55 | 46.25600 | -168.13545 | 35315 ft | 518 kts | 85° |
| 2026-04-19 23:55 | 46.26910 | -168.03310 | 35315 ft | 518 kts | 85° |
| 2026-04-19 23:56 | 46.28214 | -167.93051 | 35317 ft | 518 kts | 85° |
| 2026-04-19 23:56 | 46.29504 | -167.82837 | 35320 ft | 518 kts | 86° |
| 2026-04-19 23:57 | 46.30787 | -167.72585 | 35319 ft | 518 kts | 86° |
| 2026-04-19 23:57 | 46.32062 | -167.62326 | 35319 ft | 518 kts | 86° |
| 2026-04-19 23:58 | 46.33330 | -167.52042 | 35326 ft | 519 kts | 86° |
| 2026-04-19 23:58 | 46.34588 | -167.41759 | 35324 ft | 519 kts | 86° |
| 2026-04-19 23:59 | 46.35837 | -167.31468 | 35319 ft | 519 kts | 86° |
| 2026-04-19 23:59 | 46.37078 | -167.21173 | 35324 ft | 519 kts | 86° |
| 2026-04-20 00:00 | 46.38302 | -167.10927 | 35347 ft | 521 kts | 86° |
| 2026-04-20 00:00 | 46.38916 | -167.05745 | 35564 ft | 522 kts | 86° |
| 2026-04-20 00:00 | 46.39530 | -167.00557 | 35913 ft | 521 kts | 87° |
| 2026-04-20 00:01 | 46.40140 | -166.95397 | 36294 ft | 519 kts | 87° |
| 2026-04-20 00:01 | 46.40747 | -166.90231 | 36658 ft | 517 kts | 86° |
| 2026-04-20 00:01 | 46.41946 | -166.79955 | 37239 ft | 517 kts | 86° |
| 2026-04-20 00:02 | 46.42537 | -166.74837 | 37296 ft | 521 kts | 86° |
| 2026-04-20 00:02 | 46.43733 | -166.64443 | 37318 ft | 521 kts | 86° |
| 2026-04-20 00:03 | 46.44913 | -166.54160 | 37319 ft | 514 kts | 87° |
| 2026-04-20 00:03 | 46.46072 | -166.43939 | 37318 ft | 513 kts | 87° |
| 2026-04-20 00:04 | 46.47218 | -166.33726 | 37322 ft | 513 kts | 87° |
| 2026-04-20 00:04 | 46.48356 | -166.23504 | 37332 ft | 513 kts | 87° |
| 2026-04-20 00:05 | 46.49480 | -166.13325 | 37318 ft | 513 kts | 87° |
| 2026-04-20 00:05 | 46.50604 | -166.03073 | 37328 ft | 514 kts | 87° |
| 2026-04-20 00:06 | 46.51719 | -165.92807 | 37357 ft | 515 kts | 87° |
| 2026-04-20 00:06 | 46.52826 | -165.82524 | 37335 ft | 516 kts | 87° |
| 2026-04-20 00:07 | 46.53928 | -165.72206 | 37300 ft | 516 kts | 88° |
| 2026-04-20 00:07 | 46.55013 | -165.61957 | 37324 ft | 516 kts | 88° |
| 2026-04-20 00:08 | 46.56101 | -165.51589 | 37331 ft | 516 kts | 88° |
| 2026-04-20 00:08 | 46.57167 | -165.41335 | 37331 ft | 516 kts | 88° |
| 2026-04-20 00:09 | 46.58229 | -165.31026 | 37334 ft | 515 kts | 88° |
| 2026-04-20 00:09 | 46.59281 | -165.20714 | 37326 ft | 515 kts | 88° |
| 2026-04-20 00:10 | 46.60325 | -165.10395 | 37334 ft | 515 kts | 88° |
| 2026-04-20 00:10 | 46.61350 | -165.00162 | 37334 ft | 515 kts | 88° |
| 2026-04-20 00:11 | 46.62376 | -164.89820 | 37328 ft | 516 kts | 88° |
| 2026-04-20 00:11 | 46.63392 | -164.79488 | 37332 ft | 516 kts | 88° |
| 2026-04-20 00:12 | 46.64401 | -164.69124 | 37335 ft | 517 kts | 88° |
| 2026-04-20 00:12 | 46.65398 | -164.58779 | 37335 ft | 518 kts | 88° |
| 2026-04-20 00:13 | 46.66392 | -164.48377 | 37335 ft | 519 kts | 89° |
| 2026-04-20 00:13 | 46.67379 | -164.37946 | 37310 ft | 519 kts | 89° |
| 2026-04-20 00:14 | 46.68191 | -164.29284 | 37326 ft | 519 kts | 89° |
| 2026-04-20 00:14 | 46.69316 | -164.17157 | 37336 ft | 520 kts | 89° |
| 2026-04-20 00:15 | 46.70119 | -164.08408 | 37344 ft | 520 kts | 89° |
| 2026-04-20 00:15 | 46.71063 | -163.98024 | 37334 ft | 521 kts | 89° |
| 2026-04-20 00:16 | 46.72005 | -163.87569 | 37330 ft | 520 kts | 89° |
| 2026-04-20 00:16 | 46.72937 | -163.77109 | 37343 ft | 520 kts | 89° |
| 2026-04-20 00:17 | 46.73859 | -163.66640 | 37340 ft | 521 kts | 89° |
| 2026-04-20 00:17 | 46.74774 | -163.56152 | 37343 ft | 521 kts | 89° |
| 2026-04-20 00:18 | 46.75677 | -163.45685 | 37334 ft | 520 kts | 89° |
| 2026-04-20 00:18 | 46.76572 | -163.35197 | 37343 ft | 520 kts | 89° |
| 2026-04-20 00:19 | 46.77458 | -163.24693 | 37340 ft | 521 kts | 90° |
| 2026-04-20 00:19 | 46.78328 | -163.14260 | 37337 ft | 521 kts | 90° |
| 2026-04-20 00:20 | 46.79195 | -163.03746 | 37342 ft | 521 kts | 90° |
| 2026-04-20 00:20 | 46.80052 | -162.93234 | 37342 ft | 522 kts | 90° |
| 2026-04-20 00:21 | 46.80901 | -162.82702 | 37343 ft | 522 kts | 90° |
| 2026-04-20 00:21 | 46.81739 | -162.72189 | 37343 ft | 522 kts | 90° |
| 2026-04-20 00:22 | 46.82570 | -162.61636 | 37319 ft | 522 kts | 90° |
| 2026-04-20 00:22 | 46.83388 | -162.51121 | 37342 ft | 522 kts | 90° |
| 2026-04-20 00:23 | 46.84198 | -162.40578 | 37344 ft | 522 kts | 90° |
| 2026-04-20 00:23 | 46.84992 | -162.30121 | 37353 ft | 522 kts | 90° |
| 2026-04-20 00:24 | 46.85783 | -162.19555 | 37348 ft | 523 kts | 90° |
| 2026-04-20 00:24 | 46.86565 | -162.08997 | 37346 ft | 523 kts | 90° |
| 2026-04-20 00:25 | 46.87337 | -161.98429 | 37350 ft | 523 kts | 90° |
| 2026-04-20 00:25 | 46.88101 | -161.87846 | 37353 ft | 524 kts | 90° |
| 2026-04-20 00:26 | 46.88855 | -161.77252 | 37356 ft | 524 kts | 90° |
| 2026-04-20 00:26 | 46.89601 | -161.66640 | 37342 ft | 524 kts | 90° |
| 2026-04-20 00:27 | 46.90336 | -161.56040 | 37354 ft | 524 kts | 90° |
| 2026-04-20 00:27 | 46.91058 | -161.45484 | 37360 ft | 524 kts | 90° |
| 2026-04-20 00:28 | 46.91773 | -161.34873 | 37355 ft | 524 kts | 90° |
| 2026-04-20 00:28 | 46.92479 | -161.24251 | 37330 ft | 524 kts | 90° |
| 2026-04-20 00:29 | 46.93175 | -161.13635 | 37353 ft | 524 kts | 90° |
| 2026-04-20 00:29 | 46.93859 | -161.03059 | 37356 ft | 524 kts | 90° |
| 2026-04-20 00:30 | 46.94535 | -160.92432 | 37354 ft | 524 kts | 90° |
| 2026-04-20 00:30 | 46.95203 | -160.81795 | 37345 ft | 524 kts | 90° |
| 2026-04-20 00:31 | 46.95859 | -160.71159 | 37360 ft | 525 kts | 90° |
| 2026-04-20 00:31 | 46.96507 | -160.60511 | 37352 ft | 525 kts | 90° |
| 2026-04-20 00:32 | 46.97146 | -160.49857 | 37372 ft | 524 kts | 91° |
| 2026-04-20 00:32 | 46.97774 | -160.39216 | 37364 ft | 525 kts | 91° |
| 2026-04-20 00:33 | 46.98391 | -160.28580 | 37363 ft | 524 kts | 90° |
| 2026-04-20 00:33 | 46.98998 | -160.17946 | 37363 ft | 524 kts | 90° |
| 2026-04-20 00:34 | 46.99593 | -160.07311 | 37366 ft | 523 kts | 92° |
| 2026-04-20 00:34 | 46.99410 | -159.96792 | 37371 ft | 513 kts | 103° |
| 2026-04-20 00:35 | 46.98073 | -159.86645 | 37369 ft | 505 kts | 110° |
| 2026-04-20 00:35 | 46.96493 | -159.76664 | 37369 ft | 506 kts | 110° |
| 2026-04-20 00:36 | 46.94915 | -159.66603 | 37366 ft | 508 kts | 110° |
| 2026-04-20 00:36 | 46.93355 | -159.56516 | 37381 ft | 509 kts | 110° |
| 2026-04-20 00:37 | 46.91790 | -159.46397 | 37367 ft | 511 kts | 109° |
| 2026-04-20 00:37 | 46.90210 | -159.36244 | 37359 ft | 513 kts | 109° |
| 2026-04-20 00:38 | 46.88620 | -159.26081 | 37357 ft | 511 kts | 109° |
| 2026-04-20 00:38 | 46.87026 | -159.15969 | 37361 ft | 509 kts | 110° |
| 2026-04-20 00:39 | 46.85440 | -159.05971 | 37367 ft | 507 kts | 110° |
| 2026-04-20 00:39 | 46.83838 | -158.95949 | 37374 ft | 507 kts | 110° |
| 2026-04-20 00:40 | 46.82224 | -158.85910 | 37383 ft | 507 kts | 110° |
| 2026-04-20 00:40 | 46.80602 | -158.75881 | 37379 ft | 507 kts | 110° |
| 2026-04-20 00:41 | 46.78973 | -158.65860 | 37383 ft | 507 kts | 110° |
| 2026-04-20 00:41 | 46.77343 | -158.55899 | 37382 ft | 508 kts | 110° |
| 2026-04-20 00:42 | 46.75695 | -158.45886 | 37376 ft | 508 kts | 110° |
| 2026-04-20 00:42 | 46.74038 | -158.35874 | 37348 ft | 508 kts | 110° |
| 2026-04-20 00:43 | 46.72373 | -158.25869 | 37371 ft | 508 kts | 110° |
| 2026-04-20 00:43 | 46.70696 | -158.15863 | 37376 ft | 508 kts | 110° |
| 2026-04-20 00:44 | 46.69010 | -158.05852 | 37379 ft | 509 kts | 110° |
| 2026-04-20 00:44 | 46.67314 | -157.95841 | 37361 ft | 509 kts | 110° |
| 2026-04-20 00:45 | 46.65618 | -157.85885 | 37377 ft | 509 kts | 110° |
| 2026-04-20 00:45 | 46.63902 | -157.75878 | 37380 ft | 509 kts | 111° |
| 2026-04-20 00:46 | 46.62180 | -157.65885 | 37379 ft | 509 kts | 111° |
| 2026-04-20 00:46 | 46.60448 | -157.55894 | 37374 ft | 508 kts | 111° |
| 2026-04-20 00:47 | 46.58722 | -157.45988 | 37380 ft | 508 kts | 111° |
| 2026-04-20 00:47 | 46.56976 | -157.36035 | 37387 ft | 508 kts | 111° |
| 2026-04-20 00:48 | 46.55221 | -157.26077 | 37390 ft | 508 kts | 111° |
| 2026-04-20 00:48 | 46.53457 | -157.16127 | 37387 ft | 508 kts | 111° |
| 2026-04-20 00:49 | 46.51683 | -157.06176 | 37388 ft | 508 kts | 111° |
| 2026-04-20 00:49 | 46.49906 | -156.96260 | 37405 ft | 508 kts | 111° |
| 2026-04-20 00:50 | 46.48114 | -156.86317 | 37395 ft | 509 kts | 111° |
| 2026-04-20 00:50 | 46.46327 | -156.76456 | 37387 ft | 509 kts | 111° |
| 2026-04-20 00:51 | 46.44518 | -156.66525 | 37390 ft | 509 kts | 111° |
| 2026-04-20 00:51 | 46.42699 | -156.56597 | 37395 ft | 509 kts | 111° |
| 2026-04-20 00:52 | 46.40871 | -156.46670 | 37367 ft | 509 kts | 111° |
| 2026-04-20 00:52 | 46.39050 | -156.36831 | 37403 ft | 509 kts | 111° |
| 2026-04-20 00:53 | 46.37207 | -156.26931 | 37396 ft | 509 kts | 111° |
| 2026-04-20 00:53 | 46.35354 | -156.17025 | 37391 ft | 509 kts | 111° |
| 2026-04-20 00:54 | 46.33492 | -156.07126 | 37383 ft | 509 kts | 111° |
| 2026-04-20 00:54 | 46.31619 | -155.97223 | 37398 ft | 508 kts | 111° |
| 2026-04-20 00:55 | 46.29748 | -155.87376 | 37398 ft | 508 kts | 112° |
| 2026-04-20 00:55 | 46.27866 | -155.77529 | 37400 ft | 508 kts | 112° |
| 2026-04-20 00:56 | 46.25974 | -155.67680 | 37387 ft | 508 kts | 112° |
| 2026-04-20 00:56 | 46.24089 | -155.57915 | 37400 ft | 507 kts | 112° |
| 2026-04-20 00:57 | 46.22184 | -155.48094 | 37402 ft | 507 kts | 112° |
| 2026-04-20 00:57 | 46.20272 | -155.38292 | 37401 ft | 507 kts | 112° |
| 2026-04-20 00:58 | 46.18349 | -155.28486 | 37395 ft | 507 kts | 112° |
| 2026-04-20 00:58 | 46.16433 | -155.18756 | 37395 ft | 507 kts | 112° |
| 2026-04-20 00:59 | 46.14499 | -155.08989 | 37403 ft | 507 kts | 112° |
| 2026-04-20 00:59 | 46.12551 | -154.99202 | 37403 ft | 507 kts | 112° |
| 2026-04-20 01:00 | 46.10594 | -154.89416 | 37408 ft | 508 kts | 112° |
| 2026-04-20 01:00 | 46.08630 | -154.79646 | 37411 ft | 508 kts | 112° |
| 2026-04-20 01:01 | 46.06658 | -154.69881 | 37418 ft | 508 kts | 112° |
| 2026-04-20 01:01 | 46.05011 | -154.61763 | 37414 ft | 508 kts | 112° |
| 2026-04-20 01:02 | 46.03023 | -154.52008 | 37401 ft | 508 kts | 112° |
| 2026-04-20 01:02 | 46.01027 | -154.42263 | 37412 ft | 508 kts | 112° |
| 2026-04-20 01:03 | 45.99023 | -154.32523 | 37405 ft | 508 kts | 112° |
| 2026-04-20 01:03 | 45.97019 | -154.22832 | 37403 ft | 508 kts | 112° |
| 2026-04-20 01:04 | 45.94997 | -154.13101 | 37414 ft | 507 kts | 112° |
| 2026-04-20 01:04 | 45.92971 | -154.03399 | 37411 ft | 507 kts | 112° |
| 2026-04-20 01:05 | 45.90934 | -153.93688 | 37412 ft | 507 kts | 112° |
| 2026-04-20 01:05 | 45.88891 | -153.83998 | 37399 ft | 507 kts | 112° |
| 2026-04-20 01:06 | 45.86856 | -153.74388 | 37414 ft | 506 kts | 112° |
| 2026-04-20 01:06 | 45.84798 | -153.64714 | 37415 ft | 506 kts | 112° |
| 2026-04-20 01:07 | 45.82734 | -153.55059 | 37414 ft | 506 kts | 112° |
| 2026-04-20 01:07 | 45.80657 | -153.45392 | 37403 ft | 506 kts | 112° |
| 2026-04-20 01:08 | 45.78578 | -153.35759 | 37417 ft | 506 kts | 112° |
| 2026-04-20 01:08 | 45.76501 | -153.26176 | 37415 ft | 506 kts | 112° |
| 2026-04-20 01:09 | 45.74401 | -153.16533 | 37418 ft | 506 kts | 112° |
| 2026-04-20 01:09 | 45.72297 | -153.06919 | 37411 ft | 506 kts | 112° |
| 2026-04-20 01:10 | 45.70185 | -152.97310 | 37414 ft | 506 kts | 112° |
| 2026-04-20 01:10 | 45.67000 | -152.82901 | 37415 ft | 507 kts | 112° |
| 2026-04-20 01:11 | 45.64877 | -152.73354 | 37411 ft | 507 kts | 112° |
| 2026-04-20 01:11 | 45.62733 | -152.63753 | 37416 ft | 506 kts | 112° |
| 2026-04-20 01:12 | 45.60584 | -152.54171 | 37414 ft | 506 kts | 112° |
| 2026-04-20 01:12 | 45.58426 | -152.44597 | 37416 ft | 506 kts | 112° |
| 2026-04-20 01:13 | 45.56257 | -152.35013 | 37413 ft | 506 kts | 112° |
| 2026-04-20 01:13 | 45.54098 | -152.25517 | 37416 ft | 506 kts | 112° |
| 2026-04-20 01:14 | 45.51922 | -152.15988 | 37413 ft | 506 kts | 112° |
| 2026-04-20 01:14 | 45.49736 | -152.06457 | 37395 ft | 506 kts | 111° |
| 2026-04-20 01:15 | 45.47541 | -151.96928 | 37414 ft | 505 kts | 111° |
| 2026-04-20 01:15 | 45.45341 | -151.87419 | 37413 ft | 505 kts | 111° |
| 2026-04-20 01:16 | 45.43129 | -151.77904 | 37412 ft | 505 kts | 111° |
| 2026-04-20 01:16 | 45.40912 | -151.68406 | 37403 ft | 506 kts | 111° |
| 2026-04-20 01:17 | 45.38698 | -151.58962 | 37418 ft | 506 kts | 111° |
| 2026-04-20 01:17 | 45.36462 | -151.49462 | 37412 ft | 507 kts | 111° |
| 2026-04-20 01:18 | 45.34216 | -151.39963 | 37402 ft | 507 kts | 111° |
| 2026-04-20 01:18 | 45.31961 | -151.30464 | 37403 ft | 507 kts | 111° |
| 2026-04-20 01:19 | 45.29696 | -151.20969 | 37415 ft | 507 kts | 111° |
| 2026-04-20 01:19 | 45.27423 | -151.11478 | 37408 ft | 508 kts | 111° |
| 2026-04-20 01:20 | 45.25141 | -151.01990 | 37396 ft | 508 kts | 111° |
| 2026-04-20 01:20 | 45.22865 | -150.92568 | 37410 ft | 508 kts | 111° |
| 2026-04-20 01:21 | 45.20566 | -150.83087 | 37402 ft | 508 kts | 111° |
| 2026-04-20 01:21 | 45.18261 | -150.73625 | 37400 ft | 508 kts | 111° |
| 2026-04-20 01:22 | 45.15949 | -150.64174 | 37402 ft | 508 kts | 111° |
| 2026-04-20 01:22 | 45.13627 | -150.54719 | 37402 ft | 508 kts | 111° |
| 2026-04-20 01:23 | 45.11295 | -150.45265 | 37396 ft | 509 kts | 111° |
| 2026-04-20 01:23 | 45.08952 | -150.35801 | 37392 ft | 509 kts | 111° |
| 2026-04-20 01:24 | 45.06602 | -150.26352 | 37392 ft | 509 kts | 110° |
| 2026-04-20 01:24 | 45.04251 | -150.16936 | 37390 ft | 509 kts | 110° |
| 2026-04-20 01:25 | 45.01882 | -150.07480 | 37396 ft | 510 kts | 110° |
| 2026-04-20 01:25 | 44.99375 | -149.98101 | 37380 ft | 509 kts | 116° |
| 2026-04-20 01:26 | 44.96147 | -149.89218 | 37392 ft | 508 kts | 119° |
| 2026-04-20 01:26 | 44.92851 | -149.80435 | 37390 ft | 509 kts | 119° |
| 2026-04-20 01:27 | 44.89560 | -149.71603 | 37378 ft | 509 kts | 119° |
| 2026-04-20 01:27 | 44.86283 | -149.62757 | 37383 ft | 509 kts | 118° |
| 2026-04-20 01:28 | 44.82999 | -149.53889 | 37382 ft | 509 kts | 118° |
| 2026-04-20 01:28 | 44.79734 | -149.45107 | 37385 ft | 509 kts | 118° |
| 2026-04-20 01:29 | 44.76438 | -149.36276 | 37380 ft | 509 kts | 118° |
| 2026-04-20 01:29 | 44.73130 | -149.27445 | 37377 ft | 509 kts | 118° |
| 2026-04-20 01:30 | 44.69821 | -149.18637 | 37379 ft | 509 kts | 118° |
| 2026-04-20 01:30 | 44.66503 | -149.09833 | 37377 ft | 509 kts | 118° |
| 2026-04-20 01:31 | 44.63178 | -149.01040 | 37375 ft | 510 kts | 118° |
| 2026-04-20 01:31 | 44.59868 | -148.92313 | 37372 ft | 510 kts | 118° |
| 2026-04-20 01:32 | 44.56520 | -148.83513 | 37367 ft | 510 kts | 118° |
| 2026-04-20 01:32 | 44.53171 | -148.74740 | 37375 ft | 510 kts | 117° |
| 2026-04-20 01:33 | 44.49812 | -148.65967 | 37366 ft | 511 kts | 118° |
| 2026-04-20 01:33 | 44.46445 | -148.57202 | 37368 ft | 511 kts | 118° |
| 2026-04-20 01:34 | 44.43070 | -148.48442 | 37366 ft | 511 kts | 118° |
| 2026-04-20 01:34 | 44.39687 | -148.39691 | 37352 ft | 512 kts | 117° |
| 2026-04-20 01:35 | 44.36292 | -148.30936 | 37361 ft | 512 kts | 118° |
| 2026-04-20 01:35 | 44.32912 | -148.22246 | 37358 ft | 512 kts | 118° |
| 2026-04-20 01:36 | 44.29503 | -148.13508 | 37350 ft | 513 kts | 118° |
| 2026-04-20 01:36 | 44.26075 | -148.04749 | 37346 ft | 513 kts | 118° |
| 2026-04-20 01:37 | 44.22648 | -147.96021 | 37346 ft | 513 kts | 118° |
| 2026-04-20 01:37 | 44.19217 | -147.87309 | 37351 ft | 513 kts | 118° |
| 2026-04-20 01:38 | 44.15805 | -147.78673 | 37338 ft | 513 kts | 118° |
| 2026-04-20 01:38 | 44.12352 | -147.69958 | 37338 ft | 514 kts | 118° |
| 2026-04-20 01:39 | 44.08893 | -147.61256 | 37331 ft | 514 kts | 118° |
| 2026-04-20 01:39 | 44.05421 | -147.52549 | 37323 ft | 515 kts | 118° |
| 2026-04-20 01:40 | 44.01943 | -147.43850 | 37333 ft | 515 kts | 118° |
| 2026-04-20 01:40 | 43.98469 | -147.35192 | 37324 ft | 516 kts | 118° |
| 2026-04-20 01:41 | 43.94966 | -147.26487 | 37319 ft | 517 kts | 118° |
| 2026-04-20 01:41 | 43.91454 | -147.17784 | 37310 ft | 517 kts | 118° |
| 2026-04-20 01:42 | 43.87923 | -147.09064 | 37310 ft | 518 kts | 118° |
| 2026-04-20 01:42 | 43.84414 | -147.00422 | 37309 ft | 518 kts | 118° |
| 2026-04-20 01:43 | 43.80868 | -146.91718 | 37294 ft | 518 kts | 118° |
| 2026-04-20 01:43 | 43.77310 | -146.83010 | 37298 ft | 519 kts | 118° |
| 2026-04-20 01:44 | 43.73752 | -146.74326 | 37295 ft | 519 kts | 118° |
| 2026-04-20 01:44 | 43.70177 | -146.65632 | 37289 ft | 520 kts | 118° |
| 2026-04-20 01:45 | 43.66617 | -146.56998 | 37290 ft | 520 kts | 118° |
| 2026-04-20 01:45 | 43.63026 | -146.48312 | 37280 ft | 521 kts | 118° |
| 2026-04-20 01:46 | 43.59427 | -146.39638 | 37286 ft | 521 kts | 118° |
| 2026-04-20 01:46 | 43.55816 | -146.30958 | 37278 ft | 522 kts | 118° |
| 2026-04-20 01:47 | 43.52195 | -146.22281 | 37276 ft | 522 kts | 118° |
| 2026-04-20 01:47 | 43.48566 | -146.13613 | 37272 ft | 522 kts | 118° |
| 2026-04-20 01:48 | 43.44925 | -146.04938 | 37263 ft | 523 kts | 118° |
| 2026-04-20 01:48 | 43.41301 | -145.96332 | 37265 ft | 523 kts | 118° |
| 2026-04-20 01:49 | 43.37640 | -145.87665 | 37271 ft | 524 kts | 118° |
| 2026-04-20 01:49 | 43.33973 | -145.79009 | 37253 ft | 524 kts | 118° |
| 2026-04-20 01:50 | 43.30293 | -145.70346 | 37247 ft | 524 kts | 118° |
| 2026-04-20 01:50 | 43.26613 | -145.61710 | 37247 ft | 525 kts | 118° |
| 2026-04-20 01:51 | 43.22942 | -145.53123 | 37244 ft | 525 kts | 118° |
| 2026-04-20 01:51 | 43.19233 | -145.44470 | 37240 ft | 526 kts | 118° |
| 2026-04-20 01:52 | 43.15514 | -145.35821 | 37237 ft | 526 kts | 118° |
| 2026-04-20 01:52 | 43.12420 | -145.28641 | 37229 ft | 527 kts | 118° |
| 2026-04-20 01:53 | 43.08690 | -145.20014 | 37230 ft | 527 kts | 118° |
| 2026-04-20 01:53 | 43.04954 | -145.11394 | 37223 ft | 527 kts | 118° |
| 2026-04-20 01:54 | 43.01207 | -145.02773 | 37218 ft | 527 kts | 118° |
| 2026-04-20 01:54 | 42.97711 | -144.93986 | 37215 ft | 526 kts | 114° |
| 2026-04-20 01:55 | 42.94469 | -144.85093 | 37212 ft | 526 kts | 113° |
| 2026-04-20 01:55 | 42.91207 | -144.76140 | 37215 ft | 527 kts | 113° |
| 2026-04-20 01:56 | 42.87906 | -144.67181 | 37205 ft | 528 kts | 113° |
| 2026-04-20 01:56 | 42.84587 | -144.58239 | 37182 ft | 529 kts | 113° |
| 2026-04-20 01:57 | 42.81250 | -144.49285 | 37206 ft | 530 kts | 113° |
| 2026-04-20 01:57 | 42.77923 | -144.40381 | 37183 ft | 531 kts | 113° |
| 2026-04-20 01:58 | 42.74563 | -144.31414 | 37166 ft | 531 kts | 113° |
| 2026-04-20 01:58 | 42.71195 | -144.22451 | 37162 ft | 531 kts | 113° |
| 2026-04-20 01:59 | 42.67816 | -144.13493 | 37159 ft | 532 kts | 112° |
| 2026-04-20 01:59 | 42.64451 | -144.04595 | 37148 ft | 532 kts | 112° |
| 2026-04-20 02:00 | 42.61062 | -143.95663 | 37146 ft | 532 kts | 112° |
| 2026-04-20 02:00 | 42.57664 | -143.86738 | 37154 ft | 532 kts | 112° |
| 2026-04-20 02:01 | 42.54259 | -143.77819 | 37123 ft | 532 kts | 112° |
| 2026-04-20 02:01 | 42.50850 | -143.68919 | 37131 ft | 531 kts | 112° |
| 2026-04-20 02:02 | 42.47437 | -143.60036 | 37131 ft | 531 kts | 111° |
| 2026-04-20 02:02 | 42.44020 | -143.51169 | 37120 ft | 531 kts | 111° |
| 2026-04-20 02:03 | 42.40596 | -143.42313 | 37110 ft | 530 kts | 111° |
| 2026-04-20 02:03 | 42.37189 | -143.33528 | 37107 ft | 531 kts | 111° |
| 2026-04-20 02:04 | 42.33750 | -143.24685 | 37101 ft | 530 kts | 111° |
| 2026-04-20 02:04 | 42.30306 | -143.15857 | 37086 ft | 530 kts | 111° |
| 2026-04-20 02:05 | 42.26858 | -143.07046 | 37105 ft | 531 kts | 111° |
| 2026-04-20 02:05 | 42.23426 | -142.98302 | 37084 ft | 531 kts | 111° |
| 2026-04-20 02:06 | 42.19961 | -142.89502 | 37067 ft | 531 kts | 111° |
| 2026-04-20 02:06 | 42.16490 | -142.80714 | 37107 ft | 531 kts | 110° |
| 2026-04-20 02:07 | 42.13001 | -142.71906 | 37059 ft | 532 kts | 110° |
| 2026-04-20 02:07 | 42.09502 | -142.63101 | 37058 ft | 532 kts | 110° |
| 2026-04-20 02:08 | 42.06005 | -142.54326 | 37043 ft | 531 kts | 110° |
| 2026-04-20 02:08 | 42.02503 | -142.45564 | 37038 ft | 531 kts | 110° |
| 2026-04-20 02:09 | 41.98996 | -142.36818 | 37030 ft | 531 kts | 110° |
| 2026-04-20 02:09 | 41.95509 | -142.28148 | 37070 ft | 531 kts | 110° |
| 2026-04-20 02:10 | 41.91987 | -142.19414 | 37013 ft | 531 kts | 110° |
| 2026-04-20 02:10 | 41.88459 | -142.10694 | 36968 ft | 531 kts | 110° |
| 2026-04-20 02:11 | 41.84925 | -142.01995 | 37057 ft | 531 kts | 110° |
| 2026-04-20 02:11 | 41.81382 | -141.93274 | 37008 ft | 533 kts | 110° |
| 2026-04-20 02:12 | 41.77820 | -141.84540 | 36998 ft | 534 kts | 110° |
| 2026-04-20 02:12 | 41.74262 | -141.75848 | 37048 ft | 536 kts | 110° |
| 2026-04-20 02:13 | 41.70653 | -141.67060 | 36992 ft | 539 kts | 110° |
| 2026-04-20 02:13 | 41.67026 | -141.58252 | 36983 ft | 540 kts | 110° |
| 2026-04-20 02:14 | 41.63391 | -141.49455 | 37036 ft | 541 kts | 110° |
| 2026-04-20 02:14 | 41.59763 | -141.40696 | 36967 ft | 543 kts | 110° |
| 2026-04-20 02:15 | 41.56099 | -141.31880 | 36952 ft | 543 kts | 110° |
| 2026-04-20 02:15 | 41.52430 | -141.23080 | 37005 ft | 542 kts | 111° |
| 2026-04-20 02:16 | 41.48751 | -141.14276 | 36939 ft | 542 kts | 111° |
| 2026-04-20 02:16 | 41.45075 | -141.05510 | 36935 ft | 541 kts | 111° |
| 2026-04-20 02:17 | 41.41424 | -140.96827 | 36968 ft | 539 kts | 111° |
| 2026-04-20 02:17 | 41.37746 | -140.88102 | 36915 ft | 538 kts | 111° |
| 2026-04-20 02:18 | 41.34084 | -140.79444 | 36895 ft | 536 kts | 111° |
| 2026-04-20 02:18 | 41.30430 | -140.70828 | 36925 ft | 534 kts | 112° |
| 2026-04-20 02:19 | 41.26775 | -140.62232 | 36888 ft | 532 kts | 112° |
| 2026-04-20 02:19 | 41.23150 | -140.53733 | 36880 ft | 531 kts | 112° |
| 2026-04-20 02:20 | 41.19506 | -140.45211 | 36906 ft | 530 kts | 112° |
| 2026-04-20 02:20 | 41.15856 | -140.36699 | 36871 ft | 530 kts | 112° |
| 2026-04-20 02:21 | 41.10360 | -140.23930 | 36858 ft | 530 kts | 112° |
| 2026-04-20 02:22 | 41.06694 | -140.15441 | 36853 ft | 531 kts | 113° |
| 2026-04-20 02:22 | 41.03033 | -140.06986 | 36850 ft | 532 kts | 114° |
| 2026-04-20 02:23 | 40.99504 | -139.98413 | 36833 ft | 527 kts | 108° |
| 2026-04-20 02:23 | 40.96858 | -139.89454 | 36835 ft | 522 kts | 103° |
| 2026-04-20 02:24 | 40.94325 | -139.80448 | 36832 ft | 523 kts | 103° |
| 2026-04-20 02:24 | 40.91750 | -139.71435 | 36816 ft | 524 kts | 104° |
| 2026-04-20 02:25 | 40.89138 | -139.62425 | 36830 ft | 524 kts | 105° |
| 2026-04-20 02:25 | 40.86531 | -139.53512 | 36783 ft | 522 kts | 105° |
| 2026-04-20 02:26 | 40.83918 | -139.44603 | 36769 ft | 518 kts | 105° |
| 2026-04-20 02:26 | 40.81314 | -139.35742 | 36781 ft | 515 kts | 105° |
| 2026-04-20 02:27 | 40.78717 | -139.26926 | 36752 ft | 514 kts | 105° |
| 2026-04-20 02:27 | 40.76124 | -139.18151 | 36742 ft | 513 kts | 106° |
| 2026-04-20 02:28 | 40.73526 | -139.09392 | 36767 ft | 513 kts | 106° |
| 2026-04-20 02:28 | 40.70933 | -139.00676 | 36741 ft | 514 kts | 106° |
| 2026-04-20 02:29 | 40.68312 | -138.91899 | 36726 ft | 514 kts | 106° |
| 2026-04-20 02:29 | 40.65689 | -138.83146 | 36718 ft | 514 kts | 106° |
| 2026-04-20 02:30 | 40.63055 | -138.74384 | 36711 ft | 515 kts | 107° |
| 2026-04-20 02:30 | 40.60408 | -138.65609 | 36704 ft | 515 kts | 107° |
| 2026-04-20 02:31 | 40.57775 | -138.56909 | 36699 ft | 515 kts | 107° |
| 2026-04-20 02:31 | 40.55109 | -138.48124 | 36698 ft | 516 kts | 107° |
| 2026-04-20 02:32 | 40.52441 | -138.39366 | 36681 ft | 516 kts | 107° |
| 2026-04-20 02:32 | 40.49763 | -138.30605 | 36672 ft | 516 kts | 107° |
| 2026-04-20 02:33 | 40.47077 | -138.21844 | 36680 ft | 517 kts | 108° |
| 2026-04-20 02:33 | 40.44380 | -138.13077 | 36677 ft | 517 kts | 108° |
| 2026-04-20 02:34 | 40.41698 | -138.04386 | 36694 ft | 517 kts | 108° |
| 2026-04-20 02:34 | 40.38994 | -137.95652 | 36689 ft | 517 kts | 108° |
| 2026-04-20 02:35 | 40.36279 | -137.86912 | 36672 ft | 516 kts | 108° |
| 2026-04-20 02:35 | 40.33565 | -137.78203 | 36676 ft | 515 kts | 108° |
| 2026-04-20 02:36 | 40.30846 | -137.69508 | 36678 ft | 515 kts | 109° |
| 2026-04-20 02:36 | 40.28128 | -137.60838 | 36666 ft | 514 kts | 109° |
| 2026-04-20 02:37 | 40.25406 | -137.52185 | 36668 ft | 514 kts | 109° |
| 2026-04-20 02:37 | 40.22693 | -137.43590 | 36667 ft | 514 kts | 109° |
| 2026-04-20 02:38 | 40.19959 | -137.34954 | 36668 ft | 514 kts | 109° |
| 2026-04-20 02:38 | 40.17217 | -137.26319 | 36669 ft | 514 kts | 110° |
| 2026-04-20 02:39 | 40.14460 | -137.17667 | 36669 ft | 515 kts | 110° |
| 2026-04-20 02:39 | 40.11697 | -137.09021 | 36671 ft | 515 kts | 110° |
| 2026-04-20 02:40 | 40.08927 | -137.00381 | 36670 ft | 515 kts | 110° |
| 2026-04-20 02:40 | 40.06150 | -136.91748 | 36671 ft | 516 kts | 110° |
| 2026-04-20 02:41 | 40.03380 | -136.83161 | 36681 ft | 516 kts | 110° |
| 2026-04-20 02:41 | 40.00590 | -136.74539 | 36672 ft | 516 kts | 110° |
| 2026-04-20 02:42 | 39.98245 | -136.67313 | 36673 ft | 516 kts | 110° |
| 2026-04-20 02:42 | 39.95460 | -136.58757 | 36689 ft | 516 kts | 111° |
| 2026-04-20 02:43 | 39.92651 | -136.50152 | 36673 ft | 515 kts | 111° |
| 2026-04-20 02:43 | 39.89837 | -136.41556 | 36692 ft | 515 kts | 111° |
| 2026-04-20 02:44 | 39.87024 | -136.32997 | 36679 ft | 513 kts | 111° |
| 2026-04-20 02:44 | 39.84209 | -136.24452 | 36676 ft | 512 kts | 111° |
| 2026-04-20 02:45 | 39.81414 | -136.15996 | 36679 ft | 511 kts | 111° |
| 2026-04-20 02:45 | 39.78602 | -136.07511 | 36682 ft | 511 kts | 111° |
| 2026-04-20 02:46 | 39.75783 | -135.99030 | 36685 ft | 511 kts | 112° |
| 2026-04-20 02:46 | 39.72956 | -135.90555 | 36685 ft | 511 kts | 112° |
| 2026-04-20 02:47 | 39.70120 | -135.82074 | 36687 ft | 511 kts | 112° |
| 2026-04-20 02:47 | 39.67277 | -135.73601 | 36699 ft | 512 kts | 112° |
| 2026-04-20 02:48 | 39.64444 | -135.65181 | 36692 ft | 512 kts | 112° |
| 2026-04-20 02:48 | 39.61585 | -135.56711 | 36693 ft | 512 kts | 112° |
| 2026-04-20 02:49 | 39.58722 | -135.48250 | 36690 ft | 512 kts | 113° |
| 2026-04-20 02:49 | 39.55843 | -135.39769 | 36697 ft | 513 kts | 113° |
| 2026-04-20 02:50 | 39.52965 | -135.31316 | 36701 ft | 513 kts | 113° |
| 2026-04-20 02:50 | 39.50080 | -135.22867 | 36706 ft | 513 kts | 114° |
| 2026-04-20 02:51 | 39.47186 | -135.14416 | 36709 ft | 513 kts | 114° |
| 2026-04-20 02:51 | 39.44305 | -135.06025 | 36709 ft | 513 kts | 114° |
| 2026-04-20 02:52 | 39.41615 | -134.97468 | 36714 ft | 513 kts | 107° |
| 2026-04-20 02:52 | 39.40022 | -134.88489 | 36716 ft | 512 kts | 99° |
| 2026-04-20 02:53 | 39.38881 | -134.79415 | 36724 ft | 512 kts | 98° |
| 2026-04-20 02:53 | 39.37720 | -134.70292 | 36723 ft | 513 kts | 99° |
| 2026-04-20 02:54 | 39.36522 | -134.61201 | 36726 ft | 514 kts | 99° |
| 2026-04-20 02:54 | 39.35306 | -134.52152 | 36727 ft | 514 kts | 99° |
| 2026-04-20 02:55 | 39.34071 | -134.43037 | 36736 ft | 514 kts | 99° |
| 2026-04-20 02:55 | 39.32830 | -134.33927 | 36751 ft | 515 kts | 100° |
| 2026-04-20 02:56 | 39.31586 | -134.24829 | 36743 ft | 514 kts | 100° |
| 2026-04-20 02:56 | 39.30334 | -134.15733 | 36743 ft | 513 kts | 100° |
| 2026-04-20 02:57 | 39.29087 | -134.06724 | 36745 ft | 513 kts | 100° |
| 2026-04-20 02:57 | 39.27825 | -133.97662 | 36747 ft | 512 kts | 100° |
| 2026-04-20 02:58 | 39.26559 | -133.88622 | 36753 ft | 512 kts | 101° |
| 2026-04-20 02:58 | 39.25282 | -133.79565 | 36763 ft | 512 kts | 101° |
| 2026-04-20 02:59 | 39.24003 | -133.70535 | 36768 ft | 512 kts | 101° |
| 2026-04-20 02:59 | 39.22721 | -133.61547 | 36765 ft | 512 kts | 101° |
| 2026-04-20 03:00 | 39.21425 | -133.52510 | 36772 ft | 512 kts | 101° |
| 2026-04-20 03:00 | 39.20120 | -133.43457 | 36777 ft | 512 kts | 101° |
| 2026-04-20 03:01 | 39.18814 | -133.34454 | 36778 ft | 513 kts | 101° |
| 2026-04-20 03:01 | 39.17496 | -133.25421 | 36770 ft | 513 kts | 102° |
| 2026-04-20 03:02 | 39.16171 | -133.16386 | 36780 ft | 513 kts | 102° |
| 2026-04-20 03:02 | 39.14839 | -133.07357 | 36787 ft | 513 kts | 102° |
| 2026-04-20 03:03 | 39.13498 | -132.98314 | 36783 ft | 513 kts | 102° |
| 2026-04-20 03:03 | 39.12153 | -132.89299 | 36776 ft | 512 kts | 102° |
| 2026-04-20 03:04 | 39.10802 | -132.80293 | 36792 ft | 512 kts | 102° |
| 2026-04-20 03:04 | 39.09452 | -132.71339 | 36793 ft | 512 kts | 102° |
| 2026-04-20 03:05 | 39.08085 | -132.62326 | 36793 ft | 512 kts | 102° |
| 2026-04-20 03:05 | 39.06712 | -132.53325 | 36790 ft | 512 kts | 103° |
| 2026-04-20 03:06 | 39.05334 | -132.44332 | 36803 ft | 512 kts | 103° |
| 2026-04-20 03:06 | 39.03947 | -132.35336 | 36802 ft | 512 kts | 103° |
| 2026-04-20 03:07 | 39.02555 | -132.26357 | 36800 ft | 512 kts | 103° |
| 2026-04-20 03:07 | 39.01167 | -132.17444 | 36798 ft | 511 kts | 103° |
| 2026-04-20 03:08 | 38.99763 | -132.08480 | 36804 ft | 511 kts | 103° |
| 2026-04-20 03:08 | 38.98352 | -131.99517 | 36808 ft | 512 kts | 103° |
| 2026-04-20 03:09 | 38.96933 | -131.90550 | 36794 ft | 511 kts | 104° |
| 2026-04-20 03:09 | 38.95506 | -131.81580 | 36805 ft | 511 kts | 104° |
| 2026-04-20 03:10 | 38.94085 | -131.72696 | 36811 ft | 511 kts | 104° |
| 2026-04-20 03:10 | 38.92647 | -131.63754 | 36811 ft | 511 kts | 104° |
| 2026-04-20 03:11 | 38.91201 | -131.54802 | 36794 ft | 511 kts | 104° |
| 2026-04-20 03:11 | 38.89750 | -131.45864 | 36816 ft | 511 kts | 104° |
| 2026-04-20 03:12 | 38.88290 | -131.36925 | 36824 ft | 512 kts | 104° |
| 2026-04-20 03:12 | 38.86824 | -131.27990 | 36814 ft | 511 kts | 104° |
| 2026-04-20 03:13 | 38.85353 | -131.19065 | 36809 ft | 511 kts | 105° |
| 2026-04-20 03:13 | 38.83883 | -131.10193 | 36818 ft | 511 kts | 105° |
| 2026-04-20 03:14 | 38.82400 | -131.01288 | 36819 ft | 510 kts | 105° |
| 2026-04-20 03:14 | 38.80906 | -130.92366 | 36820 ft | 511 kts | 105° |
| 2026-04-20 03:15 | 38.79407 | -130.83455 | 36823 ft | 511 kts | 105° |
| 2026-04-20 03:15 | 38.77914 | -130.74620 | 36824 ft | 510 kts | 105° |
| 2026-04-20 03:16 | 38.76403 | -130.65726 | 36824 ft | 510 kts | 105° |
| 2026-04-20 03:16 | 38.74889 | -130.56853 | 36826 ft | 509 kts | 105° |
| 2026-04-20 03:17 | 38.73368 | -130.47984 | 36823 ft | 509 kts | 105° |
| 2026-04-20 03:17 | 38.71852 | -130.39192 | 36836 ft | 509 kts | 105° |
| 2026-04-20 03:18 | 38.70315 | -130.30318 | 36827 ft | 509 kts | 106° |
| 2026-04-20 03:18 | 38.68774 | -130.21462 | 36817 ft | 510 kts | 106° |
| 2026-04-20 03:19 | 38.67227 | -130.12608 | 36829 ft | 509 kts | 106° |
| 2026-04-20 03:19 | 38.65676 | -130.03778 | 36830 ft | 508 kts | 106° |
| 2026-04-20 03:20 | 38.64128 | -129.95007 | 36831 ft | 508 kts | 106° |
| 2026-04-20 03:20 | 38.62566 | -129.86199 | 36812 ft | 507 kts | 107° |
| 2026-04-20 03:21 | 38.60999 | -129.77403 | 36823 ft | 507 kts | 107° |
| 2026-04-20 03:21 | 38.59426 | -129.68615 | 36832 ft | 507 kts | 107° |
| 2026-04-20 03:22 | 38.57845 | -129.59821 | 36831 ft | 507 kts | 107° |
| 2026-04-20 03:22 | 38.56259 | -129.51037 | 36823 ft | 506 kts | 107° |
| 2026-04-20 03:23 | 38.54669 | -129.42275 | 36827 ft | 506 kts | 108° |
| 2026-04-20 03:23 | 38.53081 | -129.33564 | 36832 ft | 506 kts | 108° |
| 2026-04-20 03:24 | 38.51477 | -129.24805 | 36834 ft | 507 kts | 108° |
| 2026-04-20 03:24 | 38.49865 | -129.16037 | 36829 ft | 507 kts | 108° |
| 2026-04-20 03:25 | 38.48247 | -129.07279 | 36839 ft | 507 kts | 108° |
| 2026-04-20 03:25 | 38.46620 | -128.98516 | 36842 ft | 508 kts | 108° |
| 2026-04-20 03:26 | 38.44987 | -128.89751 | 36818 ft | 508 kts | 108° |
| 2026-04-20 03:26 | 38.43355 | -128.81036 | 36838 ft | 508 kts | 108° |
| 2026-04-20 03:27 | 38.41707 | -128.72271 | 36841 ft | 508 kts | 108° |
| 2026-04-20 03:27 | 38.40052 | -128.63512 | 36842 ft | 509 kts | 109° |
| 2026-04-20 03:28 | 38.38389 | -128.54743 | 36819 ft | 509 kts | 109° |
| 2026-04-20 03:28 | 38.35890 | -128.41639 | 36840 ft | 508 kts | 109° |
| 2026-04-20 03:29 | 38.34202 | -128.32840 | 36841 ft | 508 kts | 109° |
| 2026-04-20 03:29 | 38.32526 | -128.24141 | 36814 ft | 508 kts | 110° |
| 2026-04-20 03:30 | 38.30836 | -128.15403 | 36842 ft | 508 kts | 110° |
| 2026-04-20 03:30 | 38.29138 | -128.06666 | 36848 ft | 508 kts | 110° |
| 2026-04-20 03:31 | 38.27430 | -127.97916 | 36831 ft | 509 kts | 110° |
| 2026-04-20 03:31 | 38.25719 | -127.89178 | 36827 ft | 509 kts | 111° |
| 2026-04-20 03:32 | 38.24289 | -127.81914 | 36847 ft | 509 kts | 111° |
| 2026-04-20 03:32 | 38.22561 | -127.73168 | 36851 ft | 510 kts | 111° |
| 2026-04-20 03:33 | 38.20821 | -127.64394 | 36846 ft | 511 kts | 111° |
| 2026-04-20 03:33 | 38.19089 | -127.55698 | 36851 ft | 511 kts | 111° |
| 2026-04-20 03:34 | 38.17335 | -127.46923 | 36828 ft | 511 kts | 111° |
| 2026-04-20 03:34 | 38.15581 | -127.38182 | 36854 ft | 510 kts | 111° |
| 2026-04-20 03:35 | 38.13822 | -127.29459 | 36847 ft | 509 kts | 111° |
| 2026-04-20 03:35 | 38.12057 | -127.20745 | 36828 ft | 508 kts | 112° |
| 2026-04-20 03:36 | 38.10293 | -127.12068 | 36848 ft | 507 kts | 112° |
| 2026-04-20 03:36 | 38.08523 | -127.03405 | 36857 ft | 507 kts | 112° |
| 2026-04-20 03:37 | 38.06760 | -126.94802 | 36823 ft | 506 kts | 112° |
| 2026-04-20 03:37 | 38.04984 | -126.86172 | 36848 ft | 505 kts | 113° |
| 2026-04-20 03:38 | 38.03198 | -126.77539 | 36851 ft | 506 kts | 113° |
| 2026-04-20 03:38 | 38.01400 | -126.68876 | 36858 ft | 507 kts | 113° |
| 2026-04-20 03:39 | 37.99599 | -126.60232 | 36832 ft | 507 kts | 113° |
| 2026-04-20 03:39 | 37.97790 | -126.51578 | 36842 ft | 507 kts | 113° |
| 2026-04-20 03:40 | 37.95987 | -126.42991 | 36839 ft | 507 kts | 114° |
| 2026-04-20 03:40 | 37.94169 | -126.34368 | 36846 ft | 506 kts | 114° |
| 2026-04-20 03:41 | 37.92343 | -126.25742 | 36823 ft | 506 kts | 114° |
| 2026-04-20 03:41 | 37.90514 | -126.17134 | 36843 ft | 505 kts | 114° |
| 2026-04-20 03:42 | 37.88691 | -126.08591 | 36848 ft | 505 kts | 114° |
| 2026-04-20 03:42 | 37.86851 | -125.99996 | 36847 ft | 505 kts | 114° |
| 2026-04-20 03:43 | 37.85006 | -125.91411 | 36819 ft | 505 kts | 114° |
| 2026-04-20 03:43 | 37.83157 | -125.82834 | 36846 ft | 505 kts | 114° |
| 2026-04-20 03:44 | 37.81497 | -125.74144 | 36837 ft | 509 kts | 111° |
| 2026-04-20 03:44 | 37.79984 | -125.65427 | 36857 ft | 509 kts | 111° |
| 2026-04-20 03:45 | 37.78444 | -125.56678 | 36834 ft | 509 kts | 111° |
| 2026-04-20 03:45 | 37.76864 | -125.47954 | 36824 ft | 508 kts | 111° |
| 2026-04-20 03:46 | 37.75265 | -125.39243 | 36847 ft | 508 kts | 111° |
| 2026-04-20 03:46 | 37.73671 | -125.30604 | 36860 ft | 508 kts | 111° |
| 2026-04-20 03:47 | 37.72061 | -125.21900 | 36842 ft | 508 kts | 111° |
| 2026-04-20 03:47 | 37.70449 | -125.13216 | 36861 ft | 508 kts | 111° |
| 2026-04-20 03:48 | 37.68831 | -125.04537 | 36866 ft | 508 kts | 111° |
| 2026-04-20 03:48 | 37.67205 | -124.95855 | 36858 ft | 508 kts | 111° |
| 2026-04-20 03:49 | 37.65574 | -124.87184 | 36862 ft | 508 kts | 111° |
| 2026-04-20 03:49 | 37.63947 | -124.78573 | 36869 ft | 508 kts | 111° |
| 2026-04-20 03:50 | 37.62299 | -124.69890 | 36869 ft | 508 kts | 111° |
| 2026-04-20 03:50 | 37.60644 | -124.61204 | 36888 ft | 509 kts | 111° |
| 2026-04-20 03:51 | 37.58991 | -124.52571 | 36895 ft | 510 kts | 111° |
| 2026-04-20 03:51 | 37.57321 | -124.43879 | 36863 ft | 510 kts | 111° |
| 2026-04-20 03:52 | 37.55644 | -124.35190 | 36896 ft | 510 kts | 111° |
| 2026-04-20 03:52 | 37.53960 | -124.26503 | 36909 ft | 511 kts | 111° |
| 2026-04-20 03:53 | 37.52266 | -124.17798 | 36905 ft | 511 kts | 111° |
| 2026-04-20 03:53 | 37.50569 | -124.09113 | 36915 ft | 510 kts | 111° |
| 2026-04-20 03:54 | 37.48867 | -124.00441 | 36917 ft | 510 kts | 111° |
| 2026-04-20 03:54 | 37.47157 | -123.91766 | 36906 ft | 509 kts | 111° |
| 2026-04-20 03:55 | 37.45458 | -123.83179 | 36921 ft | 508 kts | 111° |
| 2026-04-20 03:55 | 37.43743 | -123.74553 | 36925 ft | 507 kts | 111° |
| 2026-04-20 03:56 | 37.42024 | -123.65939 | 36899 ft | 506 kts | 110° |
| 2026-04-20 03:56 | 37.40310 | -123.57387 | 36925 ft | 506 kts | 110° |
| 2026-04-20 03:57 | 37.38581 | -123.48791 | 36931 ft | 506 kts | 111° |
| 2026-04-20 03:57 | 37.36844 | -123.40197 | 36934 ft | 507 kts | 111° |
| 2026-04-20 03:58 | 37.35101 | -123.31602 | 36925 ft | 507 kts | 111° |
| 2026-04-20 03:58 | 37.33351 | -123.23008 | 36936 ft | 508 kts | 111° |
| 2026-04-20 03:59 | 37.31604 | -123.14460 | 36925 ft | 508 kts | 110° |
| 2026-04-20 03:59 | 37.29841 | -123.05868 | 36941 ft | 508 kts | 110° |
| 2026-04-20 04:00 | 37.28071 | -122.97268 | 36947 ft | 508 kts | 111° |
| 2026-04-20 04:00 | 37.26055 | -122.88812 | 36926 ft | 500 kts | 119° |
| 2026-04-20 04:01 | 37.22991 | -122.81154 | 36945 ft | 490 kts | 129° |
| 2026-04-20 04:01 | 37.19139 | -122.74166 | 36949 ft | 486 kts | 132° |
| 2026-04-20 04:02 | 37.15210 | -122.67237 | 36942 ft | 487 kts | 132° |
| 2026-04-20 04:02 | 37.11298 | -122.60293 | 36947 ft | 488 kts | 131° |
| 2026-04-20 04:03 | 37.07390 | -122.53320 | 36956 ft | 489 kts | 131° |
| 2026-04-20 04:03 | 37.03481 | -122.46343 | 36964 ft | 490 kts | 131° |
| 2026-04-20 04:04 | 36.99563 | -122.39364 | 36959 ft | 490 kts | 131° |
| 2026-04-20 04:04 | 36.95657 | -122.32425 | 36965 ft | 491 kts | 131° |
| 2026-04-20 04:05 | 36.91693 | -122.25401 | 36978 ft | 491 kts | 131° |
| 2026-04-20 04:05 | 36.87747 | -122.18421 | 36960 ft | 492 kts | 131° |
| 2026-04-20 04:06 | 36.83820 | -122.11488 | 36979 ft | 493 kts | 131° |
| 2026-04-20 04:06 | 36.79849 | -122.04495 | 36971 ft | 493 kts | 131° |
| 2026-04-20 04:07 | 36.75866 | -121.97491 | 36983 ft | 494 kts | 131° |
| 2026-04-20 04:07 | 36.71877 | -121.90493 | 36976 ft | 495 kts | 131° |
| 2026-04-20 04:08 | 36.67911 | -121.83550 | 36974 ft | 495 kts | 131° |
| 2026-04-20 04:08 | 36.63908 | -121.76558 | 36964 ft | 496 kts | 130° |
| 2026-04-20 04:09 | 36.59883 | -121.69540 | 36961 ft | 496 kts | 130° |
| 2026-04-20 04:09 | 36.55895 | -121.62601 | 36976 ft | 496 kts | 130° |
| 2026-04-20 04:10 | 36.51866 | -121.55606 | 36984 ft | 496 kts | 130° |
| 2026-04-20 04:10 | 36.47843 | -121.48634 | 36979 ft | 496 kts | 130° |
| 2026-04-20 04:11 | 36.43814 | -121.41667 | 36981 ft | 497 kts | 130° |
| 2026-04-20 04:11 | 36.39777 | -121.34701 | 36977 ft | 497 kts | 130° |
| 2026-04-20 04:12 | 36.35753 | -121.27771 | 36967 ft | 498 kts | 130° |
| 2026-04-20 04:12 | 36.31694 | -121.20795 | 36972 ft | 498 kts | 130° |
| 2026-04-20 04:13 | 36.27626 | -121.13818 | 36961 ft | 499 kts | 130° |
| 2026-04-20 04:13 | 36.23555 | -121.06850 | 36957 ft | 499 kts | 130° |
| 2026-04-20 04:14 | 36.19479 | -120.99886 | 36963 ft | 499 kts | 130° |
| 2026-04-20 04:14 | 36.15395 | -120.92924 | 36953 ft | 499 kts | 130° |
| 2026-04-20 04:15 | 36.11332 | -120.86013 | 36968 ft | 499 kts | 130° |
| 2026-04-20 04:15 | 36.07238 | -120.79060 | 36976 ft | 499 kts | 130° |
| 2026-04-20 04:16 | 36.03139 | -120.72114 | 36959 ft | 500 kts | 130° |
| 2026-04-20 04:16 | 35.99059 | -120.65214 | 36979 ft | 500 kts | 130° |
| 2026-04-20 04:17 | 35.94937 | -120.58258 | 36999 ft | 501 kts | 130° |
| 2026-04-20 04:17 | 35.90814 | -120.51314 | 36978 ft | 502 kts | 130° |
| 2026-04-20 04:18 | 35.86686 | -120.44374 | 36977 ft | 501 kts | 130° |
| 2026-04-20 04:18 | 35.82550 | -120.37436 | 37002 ft | 502 kts | 130° |
| 2026-04-20 04:19 | 35.78407 | -120.30499 | 36990 ft | 503 kts | 130° |
| 2026-04-20 04:19 | 35.74269 | -120.23586 | 36936 ft | 504 kts | 130° |
| 2026-04-20 04:20 | 35.70108 | -120.16639 | 36941 ft | 504 kts | 130° |
| 2026-04-20 04:20 | 35.65710 | -120.09962 | 36935 ft | 496 kts | 144° |
| 2026-04-20 04:21 | 35.62899 | -120.07634 | 36977 ft | 485 kts | 155° |
| 2026-04-20 04:21 | 35.60916 | -120.06221 | 36959 ft | 486 kts | 155° |
| 2026-04-20 04:21 | 35.55089 | -120.02062 | 36933 ft | 489 kts | 154° |
| 2026-04-20 04:22 | 35.49248 | -119.97733 | 36901 ft | 488 kts | 153° |
| 2026-04-20 04:22 | 35.46357 | -119.95555 | 36616 ft | 488 kts | 153° |
| 2026-04-20 04:22 | 35.43461 | -119.93370 | 36205 ft | 490 kts | 153° |
| 2026-04-20 04:23 | 35.40554 | -119.91179 | 35791 ft | 491 kts | 153° |
| 2026-04-20 04:23 | 35.37638 | -119.88986 | 35420 ft | 492 kts | 153° |
| 2026-04-20 04:23 | 35.34723 | -119.86798 | 35166 ft | 490 kts | 153° |
| 2026-04-20 04:23 | 35.31823 | -119.84624 | 34975 ft | 487 kts | 153° |
| 2026-04-20 04:24 | 35.28942 | -119.82464 | 34794 ft | 484 kts | 152° |
| 2026-04-20 04:24 | 35.26148 | -119.80160 | 34561 ft | 484 kts | 148° |
| 2026-04-20 04:24 | 35.23494 | -119.77701 | 34092 ft | 482 kts | 146° |
| 2026-04-20 04:24 | 35.20883 | -119.75164 | 33561 ft | 479 kts | 144° |
| 2026-04-20 04:25 | 35.18290 | -119.72634 | 33052 ft | 475 kts | 145° |
| 2026-04-20 04:25 | 35.15699 | -119.70138 | 32531 ft | 470 kts | 145° |
| 2026-04-20 04:25 | 35.13126 | -119.67699 | 32048 ft | 465 kts | 146° |
| 2026-04-20 04:25 | 35.10569 | -119.65303 | 31574 ft | 461 kts | 146° |
| 2026-04-20 04:26 | 35.08017 | -119.62929 | 31099 ft | 457 kts | 146° |
| 2026-04-20 04:26 | 35.05495 | -119.60588 | 30622 ft | 453 kts | 146° |
| 2026-04-20 04:26 | 35.03029 | -119.58301 | 30135 ft | 449 kts | 146° |
| 2026-04-20 04:26 | 35.00549 | -119.56000 | 29624 ft | 446 kts | 146° |
| 2026-04-20 04:27 | 34.98093 | -119.53721 | 29105 ft | 442 kts | 146° |
| 2026-04-20 04:27 | 34.95653 | -119.51458 | 28613 ft | 439 kts | 146° |
| 2026-04-20 04:27 | 34.93240 | -119.49221 | 28110 ft | 430 kts | 146° |
| 2026-04-20 04:27 | 34.90876 | -119.47034 | 27647 ft | 425 kts | 146° |
| 2026-04-20 04:28 | 34.88507 | -119.44894 | 27165 ft | 422 kts | 147° |
| 2026-04-20 04:28 | 34.86149 | -119.42793 | 26714 ft | 419 kts | 147° |
| 2026-04-20 04:28 | 34.83803 | -119.40707 | 26238 ft | 416 kts | 147° |
| 2026-04-20 04:28 | 34.81471 | -119.38630 | 25772 ft | 414 kts | 146° |
| 2026-04-20 04:29 | 34.79150 | -119.36557 | 25303 ft | 412 kts | 146° |
| 2026-04-20 04:29 | 34.76838 | -119.34491 | 24840 ft | 411 kts | 146° |
| 2026-04-20 04:29 | 34.74535 | -119.32438 | 24373 ft | 409 kts | 147° |
| 2026-04-20 04:29 | 34.72259 | -119.30438 | 23897 ft | 408 kts | 147° |
| 2026-04-20 04:30 | 34.69952 | -119.28429 | 23418 ft | 407 kts | 147° |
| 2026-04-20 04:30 | 34.67653 | -119.26425 | 22886 ft | 405 kts | 147° |
| 2026-04-20 04:30 | 34.65381 | -119.24443 | 22398 ft | 402 kts | 147° |
| 2026-04-20 04:30 | 34.63107 | -119.22470 | 21917 ft | 399 kts | 147° |
| 2026-04-20 04:31 | 34.60849 | -119.20526 | 21454 ft | 396 kts | 147° |
| 2026-04-20 04:31 | 34.58611 | -119.18598 | 21001 ft | 394 kts | 147° |
| 2026-04-20 04:31 | 34.56388 | -119.16685 | 20540 ft | 391 kts | 147° |
| 2026-04-20 04:31 | 34.54226 | -119.14790 | 20065 ft | 375 kts | 146° |
| 2026-04-20 04:32 | 34.52151 | -119.12943 | 19640 ft | 366 kts | 146° |
| 2026-04-20 04:32 | 34.50100 | -119.11120 | 19211 ft | 365 kts | 147° |
| 2026-04-20 04:32 | 34.48054 | -119.09307 | 18787 ft | 365 kts | 146° |
| 2026-04-20 04:32 | 34.46001 | -119.07491 | 18334 ft | 366 kts | 146° |
| 2026-04-20 04:33 | 34.43943 | -119.05673 | 17819 ft | 366 kts | 147° |
| 2026-04-20 04:33 | 34.41895 | -119.03890 | 17345 ft | 356 kts | 147° |
| 2026-04-20 04:33 | 34.39914 | -119.02177 | 16906 ft | 347 kts | 147° |
| 2026-04-20 04:33 | 34.37948 | -119.00480 | 16483 ft | 347 kts | 147° |
| 2026-04-20 04:34 | 34.36013 | -118.98807 | 16058 ft | 346 kts | 147° |
| 2026-04-20 04:34 | 34.34056 | -118.97112 | 15628 ft | 345 kts | 146° |
| 2026-04-20 04:34 | 34.32138 | -118.95389 | 15186 ft | 338 kts | 146° |
| 2026-04-20 04:34 | 34.30280 | -118.93689 | 14778 ft | 335 kts | 145° |
| 2026-04-20 04:35 | 34.28410 | -118.91984 | 14351 ft | 335 kts | 146° |
| 2026-04-20 04:35 | 34.26549 | -118.90294 | 13938 ft | 335 kts | 146° |
| 2026-04-20 04:35 | 34.24714 | -118.88625 | 13475 ft | 328 kts | 145° |
| 2026-04-20 04:35 | 34.22898 | -118.86956 | 13032 ft | 328 kts | 145° |
| 2026-04-20 04:36 | 34.19366 | -118.83703 | 12569 ft | 301 kts | 145° |
| 2026-04-20 04:36 | 34.17737 | -118.82207 | 12453 ft | 290 kts | 145° |
| 2026-04-20 04:36 | 34.16155 | -118.80738 | 12237 ft | 285 kts | 143° |
| 2026-04-20 04:37 | 34.14659 | -118.79164 | 11919 ft | 286 kts | 140° |
| 2026-04-20 04:37 | 34.13188 | -118.77538 | 11573 ft | 286 kts | 140° |
| 2026-04-20 04:37 | 34.11722 | -118.75913 | 11247 ft | 287 kts | 140° |
| 2026-04-20 04:37 | 34.10259 | -118.74304 | 10911 ft | 287 kts | 140° |
| 2026-04-20 04:38 | 34.08776 | -118.72681 | 10563 ft | 287 kts | 140° |
| 2026-04-20 04:38 | 34.07306 | -118.71080 | 10238 ft | 283 kts | 140° |
| 2026-04-20 04:38 | 34.05870 | -118.69519 | 10100 ft | 273 kts | 140° |
| 2026-04-20 04:38 | 34.04473 | -118.68004 | 9870 ft | 270 kts | 140° |
| 2026-04-20 04:39 | 34.03247 | -118.66312 | 9503 ft | 269 kts | 120° |
| 2026-04-20 04:39 | 34.02715 | -118.64178 | 9226 ft | 273 kts | 100° |
| 2026-04-20 04:39 | 34.02523 | -118.61895 | 8916 ft | 273 kts | 99° |
| 2026-04-20 04:39 | 34.02319 | -118.59625 | 8598 ft | 273 kts | 99° |
| 2026-04-20 04:40 | 34.02108 | -118.57345 | 8282 ft | 274 kts | 99° |
| 2026-04-20 04:40 | 34.01894 | -118.55056 | 7965 ft | 274 kts | 99° |
| 2026-04-20 04:40 | 34.01685 | -118.52799 | 7831 ft | 266 kts | 99° |
| 2026-04-20 04:40 | 34.01486 | -118.50652 | 7684 ft | 248 kts | 99° |
| 2026-04-20 04:41 | 34.01299 | -118.48648 | 7588 ft | 235 kts | 100° |
| 2026-04-20 04:41 | 34.01118 | -118.46726 | 7482 ft | 227 kts | 100° |
| 2026-04-20 04:41 | 34.01086 | -118.44858 | 7274 ft | 231 kts | 83° |
| 2026-04-20 04:41 | 34.01463 | -118.42922 | 7083 ft | 235 kts | 81° |
| 2026-04-20 04:42 | 34.01814 | -118.41011 | 6794 ft | 238 kts | 82° |
| 2026-04-20 04:42 | 34.02157 | -118.39057 | 6502 ft | 237 kts | 82° |
| 2026-04-20 04:42 | 34.02494 | -118.37123 | 6273 ft | 234 kts | 82° |
| 2026-04-20 04:42 | 34.02806 | -118.35221 | 6029 ft | 228 kts | 84° |
| 2026-04-20 04:43 | 34.03008 | -118.33336 | 5733 ft | 225 kts | 86° |
| 2026-04-20 04:43 | 34.03189 | -118.31463 | 5404 ft | 225 kts | 86° |
| 2026-04-20 04:43 | 34.03366 | -118.29592 | 5124 ft | 224 kts | 87° |
| 2026-04-20 04:43 | 34.03512 | -118.27727 | 4831 ft | 223 kts | 87° |
| 2026-04-20 04:44 | 34.03652 | -118.25893 | 4519 ft | 223 kts | 86° |
| 2026-04-20 04:44 | 34.03799 | -118.24044 | 4230 ft | 220 kts | 86° |
| 2026-04-20 04:44 | 34.03944 | -118.22207 | 3934 ft | 220 kts | 86° |
| 2026-04-20 04:44 | 34.04088 | -118.20366 | 3567 ft | 221 kts | 86° |
| 2026-04-20 04:45 | 34.04262 | -118.18520 | 3269 ft | 220 kts | 84° |
| 2026-04-20 04:45 | 34.04455 | -118.16691 | 2976 ft | 219 kts | 84° |
| 2026-04-20 04:45 | 34.04640 | -118.14868 | 2685 ft | 218 kts | 83° |
| 2026-04-20 04:45 | 34.04858 | -118.13100 | 2622 ft | 211 kts | 82° |
| 2026-04-20 04:46 | 34.05073 | -118.11340 | 2590 ft | 218 kts | 83° |
| 2026-04-20 04:46 | 34.05275 | -118.09508 | 2580 ft | 221 kts | 85° |
| 2026-04-20 04:46 | 34.05111 | -118.07712 | 2553 ft | 212 kts | 116° |
| 2026-04-20 04:46 | 34.04198 | -118.06452 | 2539 ft | 196 kts | 154° |
| 2026-04-20 04:47 | 34.02907 | -118.06005 | 2588 ft | 195 kts | 171° |
| 2026-04-20 04:47 | 34.01549 | -118.05912 | 2595 ft | 194 kts | 194° |
| 2026-04-20 04:47 | 34.00411 | -118.06699 | 2572 ft | 189 kts | 228° |
| 2026-04-20 04:47 | 33.99575 | -118.07920 | 2581 ft | 190 kts | 231° |
| 2026-04-20 04:48 | 33.98773 | -118.09164 | 2572 ft | 190 kts | 236° |
| 2026-04-20 04:48 | 33.98341 | -118.10660 | 2581 ft | 186 kts | 260° |
| 2026-04-20 04:48 | 33.98132 | -118.12191 | 2580 ft | 189 kts | 259° |
| 2026-04-20 04:48 | 33.97939 | -118.13758 | 2607 ft | 190 kts | 261° |
| 2026-04-20 04:49 | 33.97766 | -118.15338 | 2578 ft | 189 kts | 261° |
| 2026-04-20 04:49 | 33.97603 | -118.16892 | 2581 ft | 184 kts | 262° |
| 2026-04-20 04:49 | 33.97449 | -118.18394 | 2580 ft | 178 kts | 262° |
| 2026-04-20 04:49 | 33.97298 | -118.19869 | 2589 ft | 177 kts | 262° |
| 2026-04-20 04:50 | 33.97146 | -118.21352 | 2609 ft | 179 kts | 262° |
| 2026-04-20 04:50 | 33.96991 | -118.22854 | 2605 ft | 181 kts | 262° |
| 2026-04-20 04:50 | 33.96838 | -118.24352 | 2611 ft | 183 kts | 262° |
| 2026-04-20 04:50 | 33.96680 | -118.25883 | 2435 ft | 184 kts | 262° |
| 2026-04-20 04:51 | 33.96527 | -118.27381 | 2183 ft | 176 kts | 262° |
| 2026-04-20 04:51 | 33.96379 | -118.28820 | 1969 ft | 172 kts | 262° |
| 2026-04-20 04:51 | 33.96235 | -118.30229 | 1741 ft | 164 kts | 262° |
| 2026-04-20 04:51 | 33.96099 | -118.31558 | 1534 ft | 156 kts | 262° |
| 2026-04-20 04:52 | 33.95963 | -118.32873 | 1330 ft | 159 kts | 262° |
| 2026-04-20 04:52 | 33.95834 | -118.34135 | 1102 ft | 144 kts | 262° |
| 2026-04-20 04:52 | 33.95717 | -118.35270 | 940 ft | 132 kts | 262° |
| 2026-04-20 04:52 | 33.95605 | -118.36356 | 760 ft | 132 kts | 263° |
| 2026-04-20 04:53 | 33.95494 | -118.37445 | 591 ft | 132 kts | 262° |
| 2026-04-20 04:53 | 33.95383 | -118.38545 | 404 ft | 133 kts | 262° |
| 2026-04-20 04:53 | 33.95270 | -118.39636 | 227 ft | 130 kts | 262° |
| 2026-04-20 04:53 | 33.95159 | -118.40717 | 107 ft | 127 kts | 262° |
| 2026-04-20 04:54 | 33.95060 | -118.41654 | 99 ft | 90 kts | 263° |
| 2026-04-20 04:54 | 33.95003 | -118.42204 | 101 ft | 51 kts | 262° |
| 2026-04-20 04:54 | 33.94943 | -118.42524 | 99 ft | 35 kts | 242° |
| 2026-04-20 04:54 | 33.94864 | -118.42660 | 103 ft | 7 kts | 227° |
| 2026-04-20 04:55 | 33.94861 | -118.42664 | 103 ft | 0 kts | 226° |
| 2026-04-20 04:55 | 33.94857 | -118.42670 | 104 ft | 4 kts | 226° |
| 2026-04-20 04:55 | 33.94834 | -118.42697 | 104 ft | 8 kts | 223° |
| 2026-04-20 04:56 | 33.94741 | -118.42765 | 105 ft | 17 kts | 200° |
| 2026-04-20 04:56 | 33.94661 | -118.42773 | 102 ft | 4 kts | 168° |
| 2026-04-20 04:56 | 33.94644 | -118.42768 | 101 ft | 5 kts | 168° |
| 2026-04-20 04:56 | 33.94631 | -118.42735 | 103 ft | 6 kts | 86° |
| 2026-04-20 04:57 | 33.94637 | -118.42685 | 101 ft | 7 kts | 82° |
| 2026-04-20 04:57 | 33.94644 | -118.42623 | 99 ft | 8 kts | 82° |
| 2026-04-20 04:57 | 33.94651 | -118.42552 | 99 ft | 9 kts | 83° |
| 2026-04-20 04:57 | 33.94659 | -118.42475 | 100 ft | 9 kts | 83° |
| 2026-04-20 04:58 | 33.94667 | -118.42391 | 100 ft | 11 kts | 84° |
| 2026-04-20 04:58 | 33.94676 | -118.42298 | 99 ft | 12 kts | 82° |
| 2026-04-20 04:58 | 33.94688 | -118.42194 | 101 ft | 13 kts | 83° |
| 2026-04-20 04:58 | 33.94698 | -118.42087 | 98 ft | 13 kts | 83° |
| 2026-04-20 04:59 | 33.94709 | -118.41983 | 98 ft | 13 kts | 83° |
| 2026-04-20 04:59 | 33.94715 | -118.41877 | 101 ft | 13 kts | 101° |
| 2026-04-20 04:59 | 33.94642 | -118.41821 | 99 ft | 13 kts | 168° |
| 2026-04-20 04:59 | 33.94583 | -118.41811 | 99 ft | 7 kts | 172° |
| 2026-04-20 05:00 | 33.94528 | -118.41802 | 98 ft | 8 kts | 173° |
| 2026-04-20 05:00 | 33.94469 | -118.41793 | 98 ft | 9 kts | 173° |
| 2026-04-20 05:00 | 33.94408 | -118.41785 | 100 ft | 9 kts | 173° |
| 2026-04-20 05:00 | 33.94364 | -118.41741 | 99 ft | 9 kts | 105° |
| 2026-04-20 05:01 | 33.94343 | -118.41669 | 100 ft | 8 kts | 101° |
| 2026-04-20 05:01 | 33.94345 | -118.41610 | 100 ft | 0 kts | 82° |
| 2026-04-20 05:01 | 33.94346 | -118.41604 | 99 ft | 1 kts | 80° |
| 2026-04-20 05:01 | 33.94348 | -118.41587 | 87 ft | 3 kts | 83° |
| 2026-04-20 05:02 | 33.94349 | -118.41575 | 90 ft | 0 kts | 83° |